PORTS® Data Listing: 8465705 New Haven, CT

CO-OPS RAW PORTS DATA

************************      PRELIMINARY DATA      ************************** 

     THIS RAW DATA HAS NOT BEEN SUBJECT TO THE NATIONAL OCEAN SERVICE'S        
     QUALITY CONTROL OR QUALITY ASSURANCE PROCEDURES AND DOES NOT MEET         
     THE CRITERIA AND STANDARDS OF OFFICIAL NATIONAL OCEAN SERVICE             
     DATA.  IT IS RELEASED FOR LIMITED PUBLIC USE AS PRELIMINARY DATA TO       
     BE USED ONLY WITH APPROPRIATE CAUTION.                                    

************************      PRELIMINARY DATA      ************************** 


       CD   -   Calendar date
       T    -   Time
       TZ   -   Timezone
       PW   -   Predicted water level (feet above MLLW)
       OW   -   Observed water level (feet above MLLW)
       WS   -   Wind speed (knots)
       WD   -   Wind direction (degrees true)
       WG   -   Wind gust (knots)
       AT   -   Air temperature (degrees farenheit)
       WT   -   Water temperature (degrees farenheit)
       AP   -   Air pressure (millibars)
       SA   -   Salinty (PSU - Practical Salinity Units)
       SG   -   Specific gravity
       RH   -   Relative humidity
       AG   -   Air gap (feet)
       VI   -   Visibility (nautical miles)

       ** NOTE **
       A variable that has its data fields filled with "9"s, indicates that
       data was not collected for that sample period.
       **********


STATION NAME: New Haven (8465705)
****************************************************************************************************
    CD       T    TZ    PW     OW    WS   WD   WG    AT    WT    AP    SA    SG     RH    AG   VI
****************************************************************************************************
2020/01/20 17:42 EST    3.84   4.10    3    5   11  26.6  37.4 1025.8 -9.9 -9.999 -99.9 -99.99 -9.99
2020/01/20 17:48 EST    3.98   4.24    4  356   11  26.4  37.4 1025.9 -9.9 -9.999 -99.9 -99.99 -9.99
2020/01/20 17:54 EST    4.11   4.36    7  344   13  26.4  37.4 1025.9 -9.9 -9.999 -99.9 -99.99 -9.99
2020/01/20 18:00 EST    4.24   4.45    8  352   12  26.4  37.4 1026.0 -9.9 -9.999 -99.9 -99.99 -9.99
2020/01/20 18:06 EST    4.36   4.56    6  346   11  26.2  37.4 1026.1 -9.9 -9.999 -99.9 -99.99 -9.99
2020/01/20 18:12 EST    4.49   4.66    9  337   12  26.1  37.4 1026.2 -9.9 -9.999 -99.9 -99.99 -9.99
2020/01/20 18:18 EST    4.61   4.76   10  341   13  25.7  37.2 1026.3 -9.9 -9.999 -99.9 -99.99 -9.99
2020/01/20 18:24 EST    4.72   4.88    9  338   13  25.7  37.2 1026.4 -9.9 -9.999 -99.9 -99.99 -9.99
2020/01/20 18:30 EST    4.83   4.98    8  341   13  25.7  37.2 1026.5 -9.9 -9.999 -99.9 -99.99 -9.99
2020/01/20 18:36 EST    4.93   5.10    9  343   12  25.5  37.2 1026.6 -9.9 -9.999 -99.9 -99.99 -9.99
2020/01/20 18:42 EST    5.03   5.21   12  340   17  25.3  37.2 1026.5 -9.9 -9.999 -99.9 -99.99 -9.99
2020/01/20 18:48 EST    5.12   5.33   11  344   17  25.3  37.2 1026.6 -9.9 -9.999 -99.9 -99.99 -9.99
2020/01/20 18:54 EST    5.21   5.42    9  345   15  25.2  37.2 1026.6 -9.9 -9.999 -99.9 -99.99 -9.99
2020/01/20 19:00 EST    5.29   5.51    4  353   13  25.3  37.2 1026.8 -9.9 -9.999 -99.9 -99.99 -9.99
2020/01/20 19:06 EST    5.35   5.60    5  349   12  25.0  37.2 1027.0 -9.9 -9.999 -99.9 -99.99 -9.99
2020/01/20 19:12 EST    5.42   5.66    6  351   10  24.8  37.2 1027.1 -9.9 -9.999 -99.9 -99.99 -9.99
2020/01/20 19:18 EST    5.47   5.74    6  345    9  24.6  37.2 1027.2 -9.9 -9.999 -99.9 -99.99 -9.99
2020/01/20 19:24 EST    5.51   5.82    5  348   10  24.3  37.2 1027.3 -9.9 -9.999 -99.9 -99.99 -9.99
2020/01/20 19:30 EST    5.55   5.89    6  346   11  24.3  37.2 1027.3 -9.9 -9.999 -99.9 -99.99 -9.99
2020/01/20 19:36 EST    5.57   5.94    7  351   11  24.1  37.2 1027.3 -9.9 -9.999 -99.9 -99.99 -9.99
2020/01/20 19:42 EST    5.59   5.99    5    4   13  23.9  37.2 1027.4 -9.9 -9.999 -99.9 -99.99 -9.99
2020/01/20 19:48 EST    5.59   6.04    9  339   13  23.9  37.2 1027.4 -9.9 -9.999 -99.9 -99.99 -9.99
2020/01/20 19:54 EST    5.59   6.05    7  343   12  23.9  37.2 1027.2 -9.9 -9.999 -99.9 -99.99 -9.99
2020/01/20 20:00 EST    5.58 -99.99 -999 -999 -999 -99.9 -99.9 -999.9 -9.9 -9.999 -99.9 -99.99 -9.99
2020/01/20 20:06 EST    5.56 -99.99 -999 -999 -999 -99.9 -99.9 -999.9 -9.9 -9.999 -99.9 -99.99 -9.99
2020/01/20 20:12 EST    5.53 -99.99 -999 -999 -999 -99.9 -99.9 -999.9 -9.9 -9.999 -99.9 -99.99 -9.99
2020/01/20 20:18 EST    5.50   5.97 -999 -999 -999 -99.9 -99.9 -999.9 -9.9 -9.999 -99.9 -99.99 -9.99
2020/01/20 20:24 EST    5.45   5.92    5  352   10  23.5  37.2 1027.6 -9.9 -9.999 -99.9 -99.99 -9.99
2020/01/20 20:30 EST    5.40   5.87    7  348   12  23.4  37.2 1027.5 -9.9 -9.999 -99.9 -99.99 -9.99
2020/01/20 20:36 EST    5.34   5.82    3    2   12  23.4  37.2 1027.6 -9.9 -9.999 -99.9 -99.99 -9.99
2020/01/20 20:42 EST    5.28   5.76    6  353   10  23.2  37.2 1027.5 -9.9 -9.999 -99.9 -99.99 -9.99
2020/01/20 20:48 EST    5.20   5.69    5  352   12  23.0  37.2 1027.5 -9.9 -9.999 -99.9 -99.99 -9.99
2020/01/20 20:54 EST    5.13   5.60    5  359   11  22.8  37.2 1027.6 -9.9 -9.999 -99.9 -99.99 -9.99
2020/01/20 21:00 EST    5.04   5.52    3    7   11  23.0  37.2 1027.7 -9.9 -9.999 -99.9 -99.99 -9.99
2020/01/20 21:06 EST    4.96   5.44    3   13   11  22.8  37.2 1027.5 -9.9 -9.999 -99.9 -99.99 -9.99
2020/01/20 21:12 EST    4.86   5.35    4  359   10  22.6  37.2 1027.6 -9.9 -9.999 -99.9 -99.99 -9.99
2020/01/20 21:18 EST    4.77   5.27    3  357    8  22.5  37.2 1027.6 -9.9 -9.999 -99.9 -99.99 -9.99
2020/01/20 21:24 EST    4.67   5.17    3    5    9  22.3  37.2 1027.7 -9.9 -9.999 -99.9 -99.99 -9.99
2020/01/20 21:30 EST    4.57   5.06    3  360    8  22.3  37.2 1027.4 -9.9 -9.999 -99.9 -99.99 -9.99
2020/01/20 21:36 EST    4.46   4.94    4    3   10  22.1  37.2 1027.3 -9.9 -9.999 -99.9 -99.99 -9.99
2020/01/20 21:42 EST    4.35   4.81    4    6    9  22.1  37.2 1027.5 -9.9 -9.999 -99.9 -99.99 -9.99
2020/01/20 21:48 EST    4.25   4.68    3  356    8  22.1  37.2 1027.4 -9.9 -9.999 -99.9 -99.99 -9.99
2020/01/20 21:54 EST    4.13   4.56    4   10    9  21.7  37.2 1027.3 -9.9 -9.999 -99.9 -99.99 -9.99
2020/01/20 22:00 EST    4.02   4.44    3  355    7  21.7  37.2 1027.3 -9.9 -9.999 -99.9 -99.99 -9.99
2020/01/20 22:06 EST    3.90   4.32    2  355   10  21.7  37.2 1027.4 -9.9 -9.999 -99.9 -99.99 -9.99
2020/01/20 22:12 EST    3.79   4.19    3  348    7  21.9  37.2 1027.4 -9.9 -9.999 -99.9 -99.99 -9.99
2020/01/20 22:18 EST    3.67   4.07    3  341    7  21.6  37.2 1027.5 -9.9 -9.999 -99.9 -99.99 -9.99
2020/01/20 22:24 EST    3.55   3.97    4    1    7  21.4  37.2 1027.6 -9.9 -9.999 -99.9 -99.99 -9.99
2020/01/20 22:30 EST    3.43   3.85    4  358   10  21.2  37.2 1027.7 -9.9 -9.999 -99.9 -99.99 -9.99
2020/01/20 22:36 EST    3.31   3.73    5  357   11  21.0  37.2 1027.8 -9.9 -9.999 -99.9 -99.99 -9.99
2020/01/20 22:42 EST    3.19   3.62    4  354    9  21.2  37.2 1027.8 -9.9 -9.999 -99.9 -99.99 -9.99
2020/01/20 22:48 EST    3.06   3.52    4  350    8  21.4  37.2 1027.9 -9.9 -9.999 -99.9 -99.99 -9.99
2020/01/20 22:54 EST    2.94   3.41    7  352   10  21.0  37.2 1027.9 -9.9 -9.999 -99.9 -99.99 -9.99
2020/01/20 23:00 EST    2.81   3.31    8  340   11  21.0  37.2 1027.8 -9.9 -9.999 -99.9 -99.99 -9.99
2020/01/20 23:06 EST    2.69   3.19    4  354   10  21.2  37.2 1027.8 -9.9 -9.999 -99.9 -99.99 -9.99
2020/01/20 23:12 EST    2.56   3.06    5  354    9  21.0  37.2 1027.9 -9.9 -9.999 -99.9 -99.99 -9.99
2020/01/20 23:18 EST    2.43   2.95    7  336    9  20.8  37.2 1028.0 -9.9 -9.999 -99.9 -99.99 -9.99
2020/01/20 23:24 EST    2.31   2.84    4  339    8  21.2  37.2 1028.0 -9.9 -9.999 -99.9 -99.99 -9.99
2020/01/20 23:30 EST    2.18   2.72    5  349    8  20.8  37.2 1028.0 -9.9 -9.999 -99.9 -99.99 -9.99
2020/01/20 23:36 EST    2.05   2.59    7  338    9  20.8  37.2 1028.0 -9.9 -9.999 -99.9 -99.99 -9.99
2020/01/20 23:42 EST    1.92   2.47    7  327   10  20.7  37.2 1028.0 -9.9 -9.999 -99.9 -99.99 -9.99
2020/01/20 23:48 EST    1.80   2.34    6  308    7  20.8  37.2 1028.0 -9.9 -9.999 -99.9 -99.99 -9.99
2020/01/20 23:54 EST    1.67   2.23    7  306    8  20.8  37.0 1028.0 -9.9 -9.999 -99.9 -99.99 -9.99
2020/01/21 00:00 EST    1.54   2.14    6  307    8  21.0  37.0 1027.9 -9.9 -9.999 -99.9 -99.99 -9.99
2020/01/21 00:06 EST    1.42   2.04    7  317    8  20.7  37.0 1027.8 -9.9 -9.999 -99.9 -99.99 -9.99
2020/01/21 00:12 EST    1.30   1.94    7  319    9  20.7  37.0 1027.8 -9.9 -9.999 -99.9 -99.99 -9.99
2020/01/21 00:18 EST    1.18   1.84    7  317    9  20.7  37.2 1027.8 -9.9 -9.999 -99.9 -99.99 -9.99
2020/01/21 00:24 EST    1.07   1.77    6  314    9  20.8  37.2 1027.9 -9.9 -9.999 -99.9 -99.99 -9.99
2020/01/21 00:30 EST    0.96   1.69    5  305    7  20.8  37.2 1027.8 -9.9 -9.999 -99.9 -99.99 -9.99
2020/01/21 00:36 EST    0.85   1.59    6  319    7  20.7  37.2 1027.8 -9.9 -9.999 -99.9 -99.99 -9.99
2020/01/21 00:42 EST    0.75   1.50    4  309    6  20.8  37.4 1027.8 -9.9 -9.999 -99.9 -99.99 -9.99
2020/01/21 00:48 EST    0.65   1.40    5  296    6  20.5  37.4 1027.9 -9.9 -9.999 -99.9 -99.99 -9.99
2020/01/21 00:54 EST    0.56   1.28    5  294    6  20.5  37.4 1027.8 -9.9 -9.999 -99.9 -99.99 -9.99
2020/01/21 01:00 EST    0.48   1.17    4  286    7  20.5  37.4 1027.9 -9.9 -9.999 -99.9 -99.99 -9.99
2020/01/21 01:06 EST    0.40   1.08    4  288    6  20.7  37.4 1027.9 -9.9 -9.999 -99.9 -99.99 -9.99
2020/01/21 01:12 EST    0.34   1.00    4  271    6  20.7  37.4 1028.0 -9.9 -9.999 -99.9 -99.99 -9.99
2020/01/21 01:18 EST    0.28   0.95    4  269    5  20.3  37.4 1028.0 -9.9 -9.999 -99.9 -99.99 -9.99
2020/01/21 01:24 EST    0.23   0.89    4  289    5  20.7  37.4 1027.9 -9.9 -9.999 -99.9 -99.99 -9.99
2020/01/21 01:30 EST    0.18   0.84    4  287    6  20.7  37.4 1028.0 -9.9 -9.999 -99.9 -99.99 -9.99
2020/01/21 01:36 EST    0.15   0.82    5  282    6  19.8  37.4 1028.1 -9.9 -9.999 -99.9 -99.99 -9.99
2020/01/21 01:42 EST    0.13   0.83    6  285    7  19.9  37.2 1028.1 -9.9 -9.999 -99.9 -99.99 -9.99
2020/01/21 01:48 EST    0.11   0.80    7  282    7  19.6  36.9 1028.3 -9.9 -9.999 -99.9 -99.99 -9.99
2020/01/21 01:54 EST    0.11   0.76    7  284    8  19.8  36.5 1028.3 -9.9 -9.999 -99.9 -99.99 -9.99
2020/01/21 02:00 EST    0.11   0.76    7  285    8  19.8  36.1 1028.3 -9.9 -9.999 -99.9 -99.99 -9.99
2020/01/21 02:06 EST    0.13   0.75    7  290    8  19.4  36.1 1028.4 -9.9 -9.999 -99.9 -99.99 -9.99
2020/01/21 02:12 EST    0.15   0.75    6  289    7  19.2  36.1 1028.4 -9.9 -9.999 -99.9 -99.99 -9.99
2020/01/21 02:18 EST    0.18   0.75    5  293    7  19.4  36.0 1028.5 -9.9 -9.999 -99.9 -99.99 -9.99
2020/01/21 02:24 EST    0.23   0.78    5  299    6  19.2  36.0 1028.5 -9.9 -9.999 -99.9 -99.99 -9.99
2020/01/21 02:30 EST    0.28   0.83    5  306    7  19.2  36.0 1028.4 -9.9 -9.999 -99.9 -99.99 -9.99
2020/01/21 02:36 EST    0.34   0.91    5  312    7  18.9  36.0 1028.4 -9.9 -9.999 -99.9 -99.99 -9.99
2020/01/21 02:42 EST    0.41   0.99    3  312    5  18.9  36.0 1028.5 -9.9 -9.999 -99.9 -99.99 -9.99
2020/01/21 02:48 EST    0.48   1.09    4  310    4  19.2  36.0 1028.5 -9.9 -9.999 -99.9 -99.99 -9.99
2020/01/21 02:54 EST    0.56   1.19    5  319    5  19.6  36.0 1028.4 -9.9 -9.999 -99.9 -99.99 -9.99
2020/01/21 03:00 EST    0.65   1.27    4  298    5  19.0  36.0 1028.4 -9.9 -9.999 -99.9 -99.99 -9.99
2020/01/21 03:06 EST    0.75   1.36    4  305    5  19.0  36.1 1028.4 -9.9 -9.999 -99.9 -99.99 -9.99
2020/01/21 03:12 EST    0.85   1.45    4  308    5  19.0  36.1 1028.4 -9.9 -9.999 -99.9 -99.99 -9.99
2020/01/21 03:18 EST    0.96   1.55    4  307    5  19.0  36.1 1028.4 -9.9 -9.999 -99.9 -99.99 -9.99
2020/01/21 03:24 EST    1.07   1.65    4  306    5  19.4  36.1 1028.5 -9.9 -9.999 -99.9 -99.99 -9.99
2020/01/21 03:30 EST    1.19   1.78    5  313    6  19.2  36.1 1028.3 -9.9 -9.999 -99.9 -99.99 -9.99
2020/01/21 03:36 EST    1.31   1.92    4  324    6  19.4  36.1 1028.4 -9.9 -9.999 -99.9 -99.99 -9.99
2020/01/21 03:42 EST    1.44   2.06    5  339    6  19.6  36.1 1028.3 -9.9 -9.999 -99.9 -99.99 -9.99
2020/01/21 03:48 EST    1.56   2.19    5  342    7  19.6  36.1 1028.3 -9.9 -9.999 -99.9 -99.99 -9.99
2020/01/21 03:54 EST    1.70   2.33    4  330    5  19.8  36.3 1028.4 -9.9 -9.999 -99.9 -99.99 -9.99
2020/01/21 04:00 EST    1.83   2.47    4  322    5  19.8  36.3 1028.4 -9.9 -9.999 -99.9 -99.99 -9.99
2020/01/21 04:06 EST    1.96   2.62    5  332    7  19.8  36.5 1028.4 -9.9 -9.999 -99.9 -99.99 -9.99
2020/01/21 04:12 EST    2.10   2.78    4  306    6  19.9  36.7 1028.5 -9.9 -9.999 -99.9 -99.99 -9.99
2020/01/21 04:18 EST    2.24   2.92    4  317    6  19.9  36.7 1028.5 -9.9 -9.999 -99.9 -99.99 -9.99
2020/01/21 04:24 EST    2.38   3.05    4  307    6  19.6  36.9 1028.4 -9.9 -9.999 -99.9 -99.99 -9.99
2020/01/21 04:30 EST    2.52   3.18    6  315    7  19.4  36.9 1028.4 -9.9 -9.999 -99.9 -99.99 -9.99
2020/01/21 04:36 EST    2.67   3.31    6  314    8  19.0  36.9 1028.4 -9.9 -9.999 -99.9 -99.99 -9.99
2020/01/21 04:42 EST    2.81   3.46    5  315    7  19.0  36.9 1028.6 -9.9 -9.999 -99.9 -99.99 -9.99
2020/01/21 04:48 EST    2.96   3.62    4  322    6  19.0  36.9 1028.6 -9.9 -9.999 -99.9 -99.99 -9.99
2020/01/21 04:54 EST    3.10   3.78    4  307    5  19.0  36.7 1028.6 -9.9 -9.999 -99.9 -99.99 -9.99
2020/01/21 05:00 EST    3.25   3.90    4  306    6  18.9  36.7 1028.7 -9.9 -9.999 -99.9 -99.99 -9.99
2020/01/21 05:06 EST    3.40   4.07    5  336    6  19.2  36.7 1028.7 -9.9 -9.999 -99.9 -99.99 -9.99
2020/01/21 05:12 EST    3.55   4.23    3  350    7  19.4  36.5 1028.7 -9.9 -9.999 -99.9 -99.99 -9.99
2020/01/21 05:18 EST    3.69   4.39    3  350    7  19.4  36.5 1028.7 -9.9 -9.999 -99.9 -99.99 -9.99
2020/01/21 05:24 EST    3.84   4.55    3  336    5  19.2  36.3 1028.8 -9.9 -9.999 -99.9 -99.99 -9.99
2020/01/21 05:30 EST    3.99   4.70    4  310    6  19.4  36.3 1028.9 -9.9 -9.999 -99.9 -99.99 -9.99
2020/01/21 05:36 EST    4.14   4.84    3  324    6  19.4  36.1 1029.0 -9.9 -9.999 -99.9 -99.99 -9.99
2020/01/21 05:42 EST    4.29   4.97    4  304    6  19.2  35.8 1029.1 -9.9 -9.999 -99.9 -99.99 -9.99
2020/01/21 05:48 EST    4.44   5.10    4  318    7  19.0  35.8 1029.1 -9.9 -9.999 -99.9 -99.99 -9.99
2020/01/21 05:54 EST    4.58   5.22    4  312    5  18.9  35.8 1029.3 -9.9 -9.999 -99.9 -99.99 -9.99
2020/01/21 06:00 EST    4.73   5.32    4  300    6  19.0  36.1 1029.4 -9.9 -9.999 -99.9 -99.99 -9.99
2020/01/21 06:06 EST    4.87   5.45    4  294    5  18.9  36.3 1029.4 -9.9 -9.999 -99.9 -99.99 -9.99
2020/01/21 06:12 EST    5.02   5.58    4  304    5  19.0  36.5 1029.4 -9.9 -9.999 -99.9 -99.99 -9.99
2020/01/21 06:18 EST    5.16   5.69    4  303    5  19.0  36.7 1029.5 -9.9 -9.999 -99.9 -99.99 -9.99
2020/01/21 06:24 EST    5.29   5.82    4  310    5  19.0  36.7 1029.5 -9.9 -9.999 -99.9 -99.99 -9.99
2020/01/21 06:30 EST    5.43   5.97    4  303    5  19.0  36.7 1029.6 -9.9 -9.999 -99.9 -99.99 -9.99
2020/01/21 06:36 EST    5.55   6.11    3  298    5  19.0  36.5 1029.7 -9.9 -9.999 -99.9 -99.99 -9.99
2020/01/21 06:42 EST    5.68   6.24    4  300    6  18.9  36.5 1029.8 -9.9 -9.999 -99.9 -99.99 -9.99
2020/01/21 06:48 EST    5.80   6.36    4  318    5  18.9  36.5 1029.9 -9.9 -9.999 -99.9 -99.99 -9.99
2020/01/21 06:54 EST    5.91   6.46    4  317    5  18.9  36.7 1030.0 -9.9 -9.999 -99.9 -99.99 -9.99
2020/01/21 07:00 EST    6.02   6.57    4  302    5  19.0  36.7 1030.1 -9.9 -9.999 -99.9 -99.99 -9.99
2020/01/21 07:06 EST    6.12   6.64    4  302    5  19.2  36.7 1030.1 -9.9 -9.999 -99.9 -99.99 -9.99
2020/01/21 07:12 EST    6.22   6.71    4  311    6  18.9  36.7 1030.3 -9.9 -9.999 -99.9 -99.99 -9.99
2020/01/21 07:18 EST    6.30   6.78    4  310    5  19.0  36.9 1030.3 -9.9 -9.999 -99.9 -99.99 -9.99
2020/01/21 07:24 EST    6.38   6.86    4  314    5  18.7  36.9 1030.3 -9.9 -9.999 -99.9 -99.99 -9.99
2020/01/21 07:30 EST    6.45   6.96    5  315    6  18.9  37.0 1030.4 -9.9 -9.999 -99.9 -99.99 -9.99
2020/01/21 07:36 EST    6.52   7.05    5  309    6  19.0  37.0 1030.3 -9.9 -9.999 -99.9 -99.99 -9.99
2020/01/21 07:42 EST    6.57   7.14    5  322    6  18.9  37.0 1030.4 -9.9 -9.999 -99.9 -99.99 -9.99
2020/01/21 07:48 EST    6.61   7.23    4  316    6  19.0  37.2 1030.5 -9.9 -9.999 -99.9 -99.99 -9.99
2020/01/21 07:54 EST    6.64   7.29    4  319    6  19.2  37.2 1030.5 -9.9 -9.999 -99.9 -99.99 -9.99
2020/01/21 08:00 EST    6.67   7.35    4  322    6  19.4  37.2 1030.5 -9.9 -9.999 -99.9 -99.99 -9.99
2020/01/21 08:06 EST    6.68   7.37    5  337    7  19.8  37.2 1030.5 -9.9 -9.999 -99.9 -99.99 -9.99
2020/01/21 08:12 EST    6.68   7.38    5  331    7  19.8  37.2 1030.5 -9.9 -9.999 -99.9 -99.99 -9.99
2020/01/21 08:18 EST    6.68   7.38    5  333    7  19.9  37.2 1030.6 -9.9 -9.999 -99.9 -99.99 -9.99
2020/01/21 08:24 EST    6.66   7.35    5  344    7  20.1  37.2 1030.7 -9.9 -9.999 -99.9 -99.99 -9.99
2020/01/21 08:30 EST    6.64   7.33    4  309    6  19.9  37.2 1030.7 -9.9 -9.999 -99.9 -99.99 -9.99
2020/01/21 08:36 EST    6.60   7.29    4  332    7  20.5  37.2 1030.6 -9.9 -9.999 -99.9 -99.99 -9.99
2020/01/21 08:42 EST    6.56   7.22    3    1    7  21.4  37.2 1030.7 -9.9 -9.999 -99.9 -99.99 -9.99
2020/01/21 08:48 EST    6.51   7.19    2  344    6  21.4  37.2 1030.7 -9.9 -9.999 -99.9 -99.99 -9.99
2020/01/21 08:54 EST    6.45   7.16    3  355    6  21.2  37.2 1030.7 -9.9 -9.999 -99.9 -99.99 -9.99
2020/01/21 09:00 EST    6.38   7.12    1  346    6  21.9  37.2 1030.7 -9.9 -9.999 -99.9 -99.99 -9.99
2020/01/21 09:06 EST    6.30   7.07    2   15    6  21.9  37.2 1030.7 -9.9 -9.999 -99.9 -99.99 -9.99
2020/01/21 09:12 EST    6.22   7.02    1  134    4  22.6  37.2 1030.7 -9.9 -9.999 -99.9 -99.99 -9.99
2020/01/21 09:18 EST    6.13   6.94    2   10    5  22.6  37.2 1030.8 -9.9 -9.999 -99.9 -99.99 -9.99
2020/01/21 09:24 EST    6.04   6.81    4   24   10  22.6  37.0 1030.8 -9.9 -9.999 -99.9 -99.99 -9.99
2020/01/21 09:30 EST    5.94   6.71    4   21   10  22.6  37.0 1030.7 -9.9 -9.999 -99.9 -99.99 -9.99
2020/01/21 09:36 EST    5.83   6.58    2  337    8  23.2  37.0 1030.7 -9.9 -9.999 -99.9 -99.99 -9.99
2020/01/21 09:42 EST    5.72   6.44    2  351   10  23.4  37.0 1030.7 -9.9 -9.999 -99.9 -99.99 -9.99
2020/01/21 09:48 EST    5.61   6.29    2   40    9  23.7  37.0 1030.7 -9.9 -9.999 -99.9 -99.99 -9.99
2020/01/21 09:54 EST    5.49   6.16    3    4    9  23.5  37.0 1030.7 -9.9 -9.999 -99.9 -99.99 -9.99
2020/01/21 10:00 EST    5.36   6.02    4  358   10  23.7  37.0 1030.6 -9.9 -9.999 -99.9 -99.99 -9.99
2020/01/21 10:06 EST    5.24   5.88    7  351   13  23.5  37.0 1030.5 -9.9 -9.999 -99.9 -99.99 -9.99
2020/01/21 10:12 EST    5.11   5.74    5    3   10  23.9  37.0 1030.6 -9.9 -9.999 -99.9 -99.99 -9.99
2020/01/21 10:18 EST    4.98   5.61    2  350   11  24.3  37.0 1030.6 -9.9 -9.999 -99.9 -99.99 -9.99
2020/01/21 10:24 EST    4.85   5.49    6  351   10  24.4  37.0 1030.7 -9.9 -9.999 -99.9 -99.99 -9.99
2020/01/21 10:30 EST    4.71   5.36    4    5    9  24.8  37.0 1030.7 -9.9 -9.999 -99.9 -99.99 -9.99
2020/01/21 10:36 EST    4.58   5.21    3  342    8  25.0  37.0 1030.7 -9.9 -9.999 -99.9 -99.99 -9.99
2020/01/21 10:42 EST    4.44   5.06    7  346   11  24.6  37.2 1030.6 -9.9 -9.999 -99.9 -99.99 -9.99
2020/01/21 10:48 EST    4.30   4.89    7  346   13  25.0  37.2 1030.4 -9.9 -9.999 -99.9 -99.99 -9.99
2020/01/21 10:54 EST    4.15   4.74    9  343   13  25.0  37.2 1030.3 -9.9 -9.999 -99.9 -99.99 -9.99
2020/01/21 11:00 EST    4.01   4.59    6  342   12  25.2  37.2 1030.3 -9.9 -9.999 -99.9 -99.99 -9.99
2020/01/21 11:06 EST    3.86   4.42    5  346   10  25.5  37.2 1030.2 -9.9 -9.999 -99.9 -99.99 -9.99
2020/01/21 11:12 EST    3.71   4.27    5  353    9  25.5  37.2 1030.1 -9.9 -9.999 -99.9 -99.99 -9.99
2020/01/21 11:18 EST    3.56   4.11    3    2   10  26.1  37.2 1030.1 -9.9 -9.999 -99.9 -99.99 -9.99
2020/01/21 11:24 EST    3.41   3.97    2  359   10  26.8  37.2 1030.0 -9.9 -9.999 -99.9 -99.99 -9.99
2020/01/21 11:30 EST    3.26   3.81    2    2    5  27.1  37.2 1029.9 -9.9 -9.999 -99.9 -99.99 -9.99
2020/01/21 11:36 EST    3.11   3.68    3    8    7  27.3  37.2 1029.8 -9.9 -9.999 -99.9 -99.99 -9.99
2020/01/21 11:42 EST    2.95   3.53    1   57    5  27.7  37.2 1029.8 -9.9 -9.999 -99.9 -99.99 -9.99
2020/01/21 11:48 EST    2.80   3.39    3   18    7  27.7  37.2 1029.7 -9.9 -9.999 -99.9 -99.99 -9.99
2020/01/21 11:54 EST    2.64   3.25    3   21    9  28.0  37.2 1029.6 -9.9 -9.999 -99.9 -99.99 -9.99
2020/01/21 12:00 EST    2.48   3.09    2   16    6  28.2  37.2 1029.4 -9.9 -9.999 -99.9 -99.99 -9.99
2020/01/21 12:06 EST    2.32   2.94    2   25    6  28.8  37.2 1029.3 -9.9 -9.999 -99.9 -99.99 -9.99
2020/01/21 12:12 EST    2.17   2.79    3   64    7  28.8  37.2 1029.3 -9.9 -9.999 -99.9 -99.99 -9.99
2020/01/21 12:18 EST    2.01   2.64    8  347   11  28.0  37.2 1029.3 -9.9 -9.999 -99.9 -99.99 -9.99
2020/01/21 12:24 EST    1.85   2.50    2    6   10  28.4  37.2 1029.3 -9.9 -9.999 -99.9 -99.99 -9.99
2020/01/21 12:30 EST    1.70   2.36    5  360   10  28.6  37.2 1029.2 -9.9 -9.999 -99.9 -99.99 -9.99
2020/01/21 12:36 EST    1.55   2.23    4  354   11  28.9  37.2 1029.2 -9.9 -9.999 -99.9 -99.99 -9.99
2020/01/21 12:42 EST    1.39   2.10    5    5    8  29.1  37.2 1029.0 -9.9 -9.999 -99.9 -99.99 -9.99
2020/01/21 12:48 EST    1.25   1.97    7  332    9  28.4  37.2 1029.0 -9.9 -9.999 -99.9 -99.99 -9.99
2020/01/21 12:54 EST    1.10   1.83    3    4    8  29.5  37.2 1028.9 -9.9 -9.999 -99.9 -99.99 -9.99
2020/01/21 13:00 EST    0.96   1.69    4    5   11  29.3  37.2 1028.8 -9.9 -9.999 -99.9 -99.99 -9.99
2020/01/21 13:06 EST    0.83   1.55    3   11    7  29.7  37.2 1028.8 -9.9 -9.999 -99.9 -99.99 -9.99
2020/01/21 13:12 EST    0.70   1.40    3   12    5  30.4  37.2 1028.7 -9.9 -9.999 -99.9 -99.99 -9.99
2020/01/21 13:18 EST    0.57   1.26    3  359    7  29.8  37.2 1028.7 -9.9 -9.999 -99.9 -99.99 -9.99
2020/01/21 13:24 EST    0.45   1.13    5  352    8  30.0  37.2 1028.7 -9.9 -9.999 -99.9 -99.99 -9.99
2020/01/21 13:30 EST    0.34   1.02    3    1    7  30.6  37.2 1028.7 -9.9 -9.999 -99.9 -99.99 -9.99
2020/01/21 13:36 EST    0.24   0.92    4  358    8  30.4  37.2 1028.6 -9.9 -9.999 -99.9 -99.99 -9.99
2020/01/21 13:42 EST    0.14   0.84    2  352    7  30.6  37.2 1028.7 -9.9 -9.999 -99.9 -99.99 -9.99
2020/01/21 13:48 EST    0.06   0.75    6  348   10  30.2  37.2 1028.6 -9.9 -9.999 -99.9 -99.99 -9.99
2020/01/21 13:54 EST   -0.02   0.67    3   16   10  30.6  37.2 1028.7 -9.9 -9.999 -99.9 -99.99 -9.99
2020/01/21 14:00 EST   -0.09   0.58    5    2   10  30.6  37.0 1028.6 -9.9 -9.999 -99.9 -99.99 -9.99
2020/01/21 14:06 EST   -0.15   0.51    2   21    8  31.3  37.0 1028.5 -9.9 -9.999 -99.9 -99.99 -9.99
2020/01/21 14:12 EST   -0.20   0.41    3   29    5  31.5  37.2 1028.4 -9.9 -9.999 -99.9 -99.99 -9.99
2020/01/21 14:18 EST   -0.24   0.34    4    8    7  31.1  37.0 1028.4 -9.9 -9.999 -99.9 -99.99 -9.99
2020/01/21 14:24 EST   -0.27   0.26    5    9   10  30.9  37.0 1028.4 -9.9 -9.999 -99.9 -99.99 -9.99
2020/01/21 14:30 EST   -0.29   0.20    3   23    6  30.9  37.0 1028.5 -9.9 -9.999 -99.9 -99.99 -9.99
2020/01/21 14:36 EST   -0.30   0.16    4   35    7  30.9  37.0 1028.4 -9.9 -9.999 -99.9 -99.99 -9.99
2020/01/21 14:42 EST   -0.30   0.14    2   10    8  30.9  37.0 1028.5 -9.9 -9.999 -99.9 -99.99 -9.99
2020/01/21 14:48 EST   -0.30   0.13    6    0   10  30.9  37.2 1028.5 -9.9 -9.999 -99.9 -99.99 -9.99
2020/01/21 14:54 EST   -0.28   0.14    5  352    8  31.5  37.2 1028.6 -9.9 -9.999 -99.9 -99.99 -9.99
2020/01/21 15:00 EST   -0.25   0.15    5    4   10  31.8  37.2 1028.6 -9.9 -9.999 -99.9 -99.99 -9.99
2020/01/21 15:06 EST   -0.22   0.18    5  356    9  31.8  37.2 1028.6 -9.9 -9.999 -99.9 -99.99 -9.99
2020/01/21 15:12 EST   -0.17   0.23    5    5    8  32.0  37.2 1028.6 -9.9 -9.999 -99.9 -99.99 -9.99
2020/01/21 15:18 EST   -0.12   0.27    9  344   13  31.6  37.2 1028.7 -9.9 -9.999 -99.9 -99.99 -9.99
2020/01/21 15:24 EST   -0.06   0.32   11  328   12  31.5  37.2 1028.7 -9.9 -9.999 -99.9 -99.99 -9.99
2020/01/21 15:30 EST    0.01   0.36   10  327   12  31.3  37.2 1028.7 -9.9 -9.999 -99.9 -99.99 -9.99
2020/01/21 15:36 EST    0.08   0.42    7  358   12  32.2  37.2 1028.6 -9.9 -9.999 -99.9 -99.99 -9.99
2020/01/21 15:42 EST    0.16   0.49    7  353   14  32.2  37.2 1028.6 -9.9 -9.999 -99.9 -99.99 -9.99
2020/01/21 15:48 EST    0.25   0.57    8  321   12  31.3  37.2 1028.7 -9.9 -9.999 -99.9 -99.99 -9.99
2020/01/21 15:54 EST    0.34   0.66   10  314   12  30.9  37.2 1028.8 -9.9 -9.999 -99.9 -99.99 -9.99
2020/01/21 16:00 EST    0.43   0.77   10  336   13  31.5  37.0 1028.8 -9.9 -9.999 -99.9 -99.99 -9.99
2020/01/21 16:06 EST    0.53   0.87   10  310   13  30.9  37.0 1028.8 -9.9 -9.999 -99.9 -99.99 -9.99
2020/01/21 16:12 EST    0.64   0.99   10  323   13  30.6  37.0 1028.8 -9.9 -9.999 -99.9 -99.99 -9.99
2020/01/21 16:18 EST    0.74   1.11   11  319   14  30.4  37.0 1028.7 -9.9 -9.999 -99.9 -99.99 -9.99
2020/01/21 16:24 EST    0.86   1.21   10  313   14  30.4  37.0 1028.8 -9.9 -9.999 -99.9 -99.99 -9.99
2020/01/21 16:30 EST    0.97   1.32   10  323   12  30.4  37.0 1028.9 -9.9 -9.999 -99.9 -99.99 -9.99
2020/01/21 16:36 EST    1.09   1.44    9  333   11  30.6  37.0 1029.0 -9.9 -9.999 -99.9 -99.99 -9.99
2020/01/21 16:42 EST    1.21   1.58   10  320   14  29.8  37.0 1029.0 -9.9 -9.999 -99.9 -99.99 -9.99
2020/01/21 16:48 EST    1.33   1.72   11  325   13  29.7  37.0 1029.0 -9.9 -9.999 -99.9 -99.99 -9.99
2020/01/21 16:54 EST    1.45   1.86   11  320   14  29.7  37.0 1029.1 -9.9 -9.999 -99.9 -99.99 -9.99
2020/01/21 17:00 EST    1.58   2.00   11  326   15  29.7  37.0 1029.2 -9.9 -9.999 -99.9 -99.99 -9.99
2020/01/21 17:06 EST    1.71   2.15   11  331   14  29.5  37.0 1029.4 -9.9 -9.999 -99.9 -99.99 -9.99
2020/01/21 17:12 EST    1.84   2.29   10  337   13  29.5  37.0 1029.4 -9.9 -9.999 -99.9 -99.99 -9.99
2020/01/21 17:18 EST    1.98   2.43   10  337   14  29.3  37.0 1029.5 -9.9 -9.999 -99.9 -99.99 -9.99
2020/01/21 17:24 EST    2.11   2.53    9  344   13  29.3  37.0 1029.6 -9.9 -9.999 -99.9 -99.99 -9.99
2020/01/21 17:30 EST    2.25   2.65    8  346   12  29.1  37.0 1029.7 -9.9 -9.999 -99.9 -99.99 -9.99
2020/01/21 17:36 EST    2.38   2.77    9  343   11  29.1  37.0 1029.8 -9.9 -9.999 -99.9 -99.99 -9.99
2020/01/21 17:42 EST    2.52   2.89    6  351   11  29.1  37.0 1029.8 -9.9 -9.999 -99.9 -99.99 -9.99
2020/01/21 17:48 EST    2.66   3.03    3    7   10  29.1  37.0 1029.8 -9.9 -9.999 -99.9 -99.99 -9.99
2020/01/21 17:54 EST    2.81   3.18    3    6    7  28.9  37.0 1029.9 -9.9 -9.999 -99.9 -99.99 -9.99
2020/01/21 18:00 EST    2.95   3.32    1  339    7  28.9  37.0 1030.0 -9.9 -9.999 -99.9 -99.99 -9.99
2020/01/21 18:06 EST    3.09   3.47    3    7    6  28.6  36.9 1030.1 -9.9 -9.999 -99.9 -99.99 -9.99
2020/01/21 18:12 EST    3.24   3.61    2   10    8  28.6  36.9 1030.1 -9.9 -9.999 -99.9 -99.99 -9.99
2020/01/21 18:18 EST    3.38   3.73    3   36    5  28.4  36.9 1030.1 -9.9 -9.999 -99.9 -99.99 -9.99
2020/01/21 18:24 EST    3.52   3.85    2   13    7  28.4  36.9 1030.2 -9.9 -9.999 -99.9 -99.99 -9.99
2020/01/21 18:30 EST    3.67   3.97    3    9    6  28.2  36.9 1030.3 -9.9 -9.999 -99.9 -99.99 -9.99
2020/01/21 18:36 EST    3.81   4.09    2   28    7  28.2  36.9 1030.4 -9.9 -9.999 -99.9 -99.99 -9.99
2020/01/21 18:42 EST    3.95   4.21    1  293    5  28.0  36.9 1030.5 -9.9 -9.999 -99.9 -99.99 -9.99
2020/01/21 18:48 EST    4.09   4.34    2   42    4  27.5  36.9 1030.6 -9.9 -9.999 -99.9 -99.99 -9.99
2020/01/21 18:54 EST    4.23   4.47    1   58    4  27.3  36.9 1030.6 -9.9 -9.999 -99.9 -99.99 -9.99
2020/01/21 19:00 EST    4.36   4.59    2   43    5  27.3  36.9 1030.7 -9.9 -9.999 -99.9 -99.99 -9.99
2020/01/21 19:06 EST    4.49   4.72    1   39    5  27.3  37.0 1030.8 -9.9 -9.999 -99.9 -99.99 -9.99
2020/01/21 19:12 EST    4.62   4.84    1   57    4  27.0  37.0 1030.8 -9.9 -9.999 -99.9 -99.99 -9.99
2020/01/21 19:18 EST    4.74   4.96    1   56    4  26.6  37.0 1030.8 -9.9 -9.999 -99.9 -99.99 -9.99
2020/01/21 19:24 EST    4.85   5.07    2   59    4  26.6  37.0 1030.8 -9.9 -9.999 -99.9 -99.99 -9.99
2020/01/21 19:30 EST    4.96   5.16    1   53    4  26.4  37.0 1030.7 -9.9 -9.999 -99.9 -99.99 -9.99
2020/01/21 19:36 EST    5.07   5.25    1   94    4  26.6  37.0 1030.7 -9.9 -9.999 -99.9 -99.99 -9.99
2020/01/21 19:42 EST    5.16   5.34    1  359    4  26.6  37.0 1030.7 -9.9 -9.999 -99.9 -99.99 -9.99
2020/01/21 19:48 EST    5.25   5.43    2   31    4  26.6  37.0 1030.7 -9.9 -9.999 -99.9 -99.99 -9.99
2020/01/21 19:54 EST    5.33   5.53    1  349    4  26.6  37.0 1030.7 -9.9 -9.999 -99.9 -99.99 -9.99
2020/01/21 20:00 EST    5.41   5.61    1   60    4  26.6  37.0 1030.8 -9.9 -9.999 -99.9 -99.99 -9.99
2020/01/21 20:06 EST    5.47   5.69    0   56    3  26.2  37.0 1030.8 -9.9 -9.999 -99.9 -99.99 -9.99
2020/01/21 20:12 EST    5.53   5.77    1   61    3  25.9  37.0 1030.8 -9.9 -9.999 -99.9 -99.99 -9.99
2020/01/21 20:18 EST    5.57   5.84    1   66    3  25.7  37.0 1030.7 -9.9 -9.999 -99.9 -99.99 -9.99
2020/01/21 20:24 EST    5.61   5.90    1   86    2  25.7  37.0 1030.7 -9.9 -9.999 -99.9 -99.99 -9.99
2020/01/21 20:30 EST    5.64   5.96    1   94    3  25.9  37.0 1030.6 -9.9 -9.999 -99.9 -99.99 -9.99
2020/01/21 20:36 EST    5.66   5.99    1  147    4  25.9  37.0 1030.7 -9.9 -9.999 -99.9 -99.99 -9.99
2020/01/21 20:42 EST    5.67   6.02    1   15    4  25.9  37.0 1030.7 -9.9 -9.999 -99.9 -99.99 -9.99
2020/01/21 20:48 EST    5.67   6.04    1   27    4  26.1  37.0 1030.7 -9.9 -9.999 -99.9 -99.99 -9.99
2020/01/21 20:54 EST    5.66   6.04    1   34    5  26.1  37.0 1030.7 -9.9 -9.999 -99.9 -99.99 -9.99
2020/01/21 21:00 EST    5.64   6.04    2   19    6  26.2  37.0 1030.7 -9.9 -9.999 -99.9 -99.99 -9.99
2020/01/21 21:06 EST    5.62   6.03    2   17    4  26.1  37.0 1030.7 -9.9 -9.999 -99.9 -99.99 -9.99
2020/01/21 21:12 EST    5.58   6.02    3    8    6  26.1  37.0 1030.7 -9.9 -9.999 -99.9 -99.99 -9.99
2020/01/21 21:18 EST    5.54   6.00    2   12    7  26.1  37.0 1030.7 -9.9 -9.999 -99.9 -99.99 -9.99
2020/01/21 21:24 EST    5.49   5.97    1  327    6  26.1  37.0 1030.7 -9.9 -9.999 -99.9 -99.99 -9.99
2020/01/21 21:30 EST    5.43   5.91    2  347    6  26.1  37.0 1030.8 -9.9 -9.999 -99.9 -99.99 -9.99
2020/01/21 21:36 EST    5.37   5.83    2   14    5  25.9  37.0 1030.7 -9.9 -9.999 -99.9 -99.99 -9.99
2020/01/21 21:42 EST    5.30   5.75    2   24    4  25.9  37.0 1030.7 -9.9 -9.999 -99.9 -99.99 -9.99
2020/01/21 21:48 EST    5.22   5.68    2   35    6  25.7  37.0 1030.7 -9.9 -9.999 -99.9 -99.99 -9.99
2020/01/21 21:54 EST    5.14   5.60    3   27    5  25.5  37.0 1030.8 -9.9 -9.999 -99.9 -99.99 -9.99
2020/01/21 22:00 EST    5.05   5.53    2   21    5  25.5  37.0 1030.8 -9.9 -9.999 -99.9 -99.99 -9.99
2020/01/21 22:06 EST    4.96   5.43    2   30    5  25.5  37.0 1030.8 -9.9 -9.999 -99.9 -99.99 -9.99
2020/01/21 22:12 EST    4.87   5.33    2   25    5  25.3  37.0 1030.7 -9.9 -9.999 -99.9 -99.99 -9.99
2020/01/21 22:18 EST    4.77   5.23    1   48    5  25.3  37.0 1030.6 -9.9 -9.999 -99.9 -99.99 -9.99
2020/01/21 22:24 EST    4.67   5.12    1   31    5  25.3  37.0 1030.6 -9.9 -9.999 -99.9 -99.99 -9.99
2020/01/21 22:30 EST    4.56   5.00    1   38    4  25.2  37.0 1030.6 -9.9 -9.999 -99.9 -99.99 -9.99
2020/01/21 22:36 EST    4.45   4.88    2   29    4  25.2  37.0 1030.6 -9.9 -9.999 -99.9 -99.99 -9.99
2020/01/21 22:42 EST    4.34   4.74    3    1    6  25.0  37.0 1030.7 -9.9 -9.999 -99.9 -99.99 -9.99
2020/01/21 22:48 EST    4.23   4.60    2  354    5  25.0  37.0 1030.7 -9.9 -9.999 -99.9 -99.99 -9.99
2020/01/21 22:54 EST    4.12   4.46    2    4    5  25.0  37.0 1030.7 -9.9 -9.999 -99.9 -99.99 -9.99
2020/01/21 23:00 EST    4.00   4.33    1   50    5  24.8  37.0 1030.7 -9.9 -9.999 -99.9 -99.99 -9.99
2020/01/21 23:06 EST    3.88   4.21    3   21    5  24.8  37.0 1030.6 -9.9 -9.999 -99.9 -99.99 -9.99
2020/01/21 23:12 EST    3.76   4.09    3    1    5  24.6  37.0 1030.6 -9.9 -9.999 -99.9 -99.99 -9.99
2020/01/21 23:18 EST    3.64   3.96    3   34    7  24.6  37.0 1030.5 -9.9 -9.999 -99.9 -99.99 -9.99
2020/01/21 23:24 EST    3.52   3.83    1   31    7  24.6  37.0 1030.6 -9.9 -9.999 -99.9 -99.99 -9.99
2020/01/21 23:30 EST    3.40   3.69    2   31    4  24.4  37.0 1030.5 -9.9 -9.999 -99.9 -99.99 -9.99
2020/01/21 23:36 EST    3.27   3.56    2   25    5  24.3  37.0 1030.5 -9.9 -9.999 -99.9 -99.99 -9.99
2020/01/21 23:42 EST    3.14   3.43    2    9    4  24.3  37.0 1030.5 -9.9 -9.999 -99.9 -99.99 -9.99
2020/01/21 23:48 EST    3.02   3.30    3  358    6  24.3  37.0 1030.5 -9.9 -9.999 -99.9 -99.99 -9.99
2020/01/21 23:54 EST    2.89   3.19    1   19    5  24.3  37.0 1030.5 -9.9 -9.999 -99.9 -99.99 -9.99
2020/01/22 00:00 EST    2.76   3.06    2    1    5  24.3  37.0 1030.4 -9.9 -9.999 -99.9 -99.99 -9.99
2020/01/22 00:06 EST    2.63   2.95    1   30    5  24.1  37.0 1030.3 -9.9 -9.999 -99.9 -99.99 -9.99
2020/01/22 00:12 EST    2.49   2.84    2   18    4  24.3  37.0 1030.2 -9.9 -9.999 -99.9 -99.99 -9.99
2020/01/22 00:18 EST    2.36   2.71    1   49    5  24.1  37.0 1030.2 -9.9 -9.999 -99.9 -99.99 -9.99
2020/01/22 00:24 EST    2.23   2.59    1   19    4  23.9  37.0 1030.2 -9.9 -9.999 -99.9 -99.99 -9.99
2020/01/22 00:30 EST    2.10   2.46    2   18    5  23.9  37.0 1030.1 -9.9 -9.999 -99.9 -99.99 -9.99
2020/01/22 00:36 EST    1.96   2.33    2  348    4  24.1  37.0 1030.1 -9.9 -9.999 -99.9 -99.99 -9.99
2020/01/22 00:42 EST    1.83   2.21    2  351    6  24.1  37.0 1030.1 -9.9 -9.999 -99.9 -99.99 -9.99
2020/01/22 00:48 EST    1.70   2.08    3  357    6  24.1  37.0 1030.0 -9.9 -9.999 -99.9 -99.99 -9.99
2020/01/22 00:54 EST    1.57   1.98    6  343    8  24.3  36.9 1030.0 -9.9 -9.999 -99.9 -99.99 -9.99
2020/01/22 01:00 EST    1.44   1.88    6  345    7  24.1  36.9 1030.1 -9.9 -9.999 -99.9 -99.99 -9.99
2020/01/22 01:06 EST    1.32   1.79    4  348    7  23.9  36.9 1030.1 -9.9 -9.999 -99.9 -99.99 -9.99
2020/01/22 01:12 EST    1.20   1.70    4  340    6  23.7  36.9 1030.0 -9.9 -9.999 -99.9 -99.99 -9.99
2020/01/22 01:18 EST    1.08   1.61    3  341    4  23.7  36.9 1030.0 -9.9 -9.999 -99.9 -99.99 -9.99
2020/01/22 01:24 EST    0.96   1.54    3  337    4  23.5  36.9 1030.0 -9.9 -9.999 -99.9 -99.99 -9.99
2020/01/22 01:30 EST    0.85   1.46    2  342    3  23.5  36.9 1030.0 -9.9 -9.999 -99.9 -99.99 -9.99
2020/01/22 01:36 EST    0.75   1.36    2  292    3  23.5  36.9 1030.1 -9.9 -9.999 -99.9 -99.99 -9.99
2020/01/22 01:42 EST    0.65   1.26    3  295    3  23.5  36.9 1030.1 -9.9 -9.999 -99.9 -99.99 -9.99
2020/01/22 01:48 EST    0.56   1.15    4  298    4  23.2  36.9 1030.1 -9.9 -9.999 -99.9 -99.99 -9.99
2020/01/22 01:54 EST    0.47   1.06    2  291    4  23.4  36.7 1029.9 -9.9 -9.999 -99.9 -99.99 -9.99
2020/01/22 02:00 EST    0.39   0.99    3  301    3  23.5  36.7 1029.8 -9.9 -9.999 -99.9 -99.99 -9.99
2020/01/22 02:06 EST    0.32   0.93    2  312    3  23.4  36.7 1029.8 -9.9 -9.999 -99.9 -99.99 -9.99
2020/01/22 02:12 EST    0.26   0.86    3  313    4  23.2  36.7 1029.7 -9.9 -9.999 -99.9 -99.99 -9.99
2020/01/22 02:18 EST    0.21   0.79    3  307    4  23.0  36.7 1029.8 -9.9 -9.999 -99.9 -99.99 -9.99
2020/01/22 02:24 EST    0.17   0.72    3  304    4  22.8  36.5 1029.9 -9.9 -9.999 -99.9 -99.99 -9.99
2020/01/22 02:30 EST    0.13   0.66    4  302    4  22.8  36.5 1030.0 -9.9 -9.999 -99.9 -99.99 -9.99
2020/01/22 02:36 EST    0.11   0.63    3  304    4  22.8  36.3 1030.1 -9.9 -9.999 -99.9 -99.99 -9.99
2020/01/22 02:42 EST    0.09   0.62    3  322    4  23.0  36.3 1030.1 -9.9 -9.999 -99.9 -99.99 -9.99
2020/01/22 02:48 EST    0.09   0.63    1  332    4  22.6  36.3 1030.1 -9.9 -9.999 -99.9 -99.99 -9.99
2020/01/22 02:54 EST    0.09   0.64    2   76    2  22.5  36.3 1030.1 -9.9 -9.999 -99.9 -99.99 -9.99
2020/01/22 03:00 EST    0.11   0.65    0   24    1  22.1  36.3 1030.0 -9.9 -9.999 -99.9 -99.99 -9.99
2020/01/22 03:06 EST    0.13   0.66    1  348    2  21.9  36.3 1029.8 -9.9 -9.999 -99.9 -99.99 -9.99
2020/01/22 03:12 EST    0.16   0.67    4  314    5  21.9  36.3 1029.7 -9.9 -9.999 -99.9 -99.99 -9.99
2020/01/22 03:18 EST    0.21   0.69    4  312    5  21.7  36.3 1029.8 -9.9 -9.999 -99.9 -99.99 -9.99
2020/01/22 03:24 EST    0.26   0.71    4  330    4  21.7  36.3 1029.8 -9.9 -9.999 -99.9 -99.99 -9.99
2020/01/22 03:30 EST    0.32   0.76    4  326    4  21.9  36.3 1029.7 -9.9 -9.999 -99.9 -99.99 -9.99
2020/01/22 03:36 EST    0.38   0.82    3  332    4  21.9  36.1 1029.7 -9.9 -9.999 -99.9 -99.99 -9.99
2020/01/22 03:42 EST    0.46   0.92    4  335    4  21.9  36.1 1029.6 -9.9 -9.999 -99.9 -99.99 -9.99
2020/01/22 03:48 EST    0.54   1.02    2  349    4  21.9  36.0 1029.6 -9.9 -9.999 -99.9 -99.99 -9.99
2020/01/22 03:54 EST    0.63   1.12    1   42    3  21.7  36.0 1029.5 -9.9 -9.999 -99.9 -99.99 -9.99
2020/01/22 04:00 EST    0.73   1.23    1   69    2  21.4  36.0 1029.6 -9.9 -9.999 -99.9 -99.99 -9.99
2020/01/22 04:06 EST    0.83   1.35    1   74    2  20.8  36.0 1029.7 -9.9 -9.999 -99.9 -99.99 -9.99
2020/01/22 04:12 EST    0.94   1.46    0   97    2  20.7  36.0 1029.7 -9.9 -9.999 -99.9 -99.99 -9.99
2020/01/22 04:18 EST    1.05   1.57    1   24    2  20.7  36.1 1029.7 -9.9 -9.999 -99.9 -99.99 -9.99
2020/01/22 04:24 EST    1.17   1.68    1   47    3  20.5  36.1 1029.6 -9.9 -9.999 -99.9 -99.99 -9.99
2020/01/22 04:30 EST    1.29   1.79    2   65    3  20.1  36.3 1029.6 -9.9 -9.999 -99.9 -99.99 -9.99
2020/01/22 04:36 EST    1.41   1.92    2   61    3  19.9  36.3 1029.5 -9.9 -9.999 -99.9 -99.99 -9.99
2020/01/22 04:42 EST    1.54   2.06    2   62    3  19.8  36.3 1029.5 -9.9 -9.999 -99.9 -99.99 -9.99
2020/01/22 04:48 EST    1.67   2.21    2   65    3  19.6  36.5 1029.6 -9.9 -9.999 -99.9 -99.99 -9.99
2020/01/22 04:54 EST    1.81   2.37    2   73    3  19.6  36.3 1029.5 -9.9 -9.999 -99.9 -99.99 -9.99
2020/01/22 05:00 EST    1.94   2.54    2   60    3  19.6  36.3 1029.6 -9.9 -9.999 -99.9 -99.99 -9.99
2020/01/22 05:06 EST    2.08   2.71    1   80    2  19.4  36.3 1029.6 -9.9 -9.999 -99.9 -99.99 -9.99
2020/01/22 05:12 EST    2.22   2.87    2   69    4  19.0  36.3 1029.7 -9.9 -9.999 -99.9 -99.99 -9.99
2020/01/22 05:18 EST    2.36   3.04    3   73    4  18.7  36.3 1029.7 -9.9 -9.999 -99.9 -99.99 -9.99
2020/01/22 05:24 EST    2.51   3.19    1   70    4  18.5  36.3 1029.9 -9.9 -9.999 -99.9 -99.99 -9.99
2020/01/22 05:30 EST    2.65   3.35    2   68    3  18.3  36.3 1030.1 -9.9 -9.999 -99.9 -99.99 -9.99
2020/01/22 05:36 EST    2.80   3.50    1   86    2  18.3  36.3 1030.2 -9.9 -9.999 -99.9 -99.99 -9.99
2020/01/22 05:42 EST    2.94   3.65    1  108    2  18.5  36.3 1030.3 -9.9 -9.999 -99.9 -99.99 -9.99
2020/01/22 05:48 EST    3.09   3.78    1   88    2  18.5  36.3 1030.3 -9.9 -9.999 -99.9 -99.99 -9.99
2020/01/22 05:54 EST    3.24   3.92    1   76    2  18.5  36.3 1030.4 -9.9 -9.999 -99.9 -99.99 -9.99
2020/01/22 06:00 EST    3.39   4.06    1   63    2  18.5  36.3 1030.5 -9.9 -9.999 -99.9 -99.99 -9.99
2020/01/22 06:06 EST    3.54   4.21    1   51    3  18.5  36.3 1030.6 -9.9 -9.999 -99.9 -99.99 -9.99
2020/01/22 06:12 EST    3.69   4.33    2   57    3  18.7  36.3 1030.6 -9.9 -9.999 -99.9 -99.99 -9.99
2020/01/22 06:18 EST    3.85   4.47    1   70    3  18.5  36.3 1030.6 -9.9 -9.999 -99.9 -99.99 -9.99
2020/01/22 06:24 EST    4.00   4.62    2   74    4  18.5  36.3 1030.7 -9.9 -9.999 -99.9 -99.99 -9.99
2020/01/22 06:30 EST    4.15   4.77    2   60    4  18.5  36.3 1030.6 -9.9 -9.999 -99.9 -99.99 -9.99
2020/01/22 06:36 EST    4.30   4.94    2   52    4  18.7  36.3 1030.6 -9.9 -9.999 -99.9 -99.99 -9.99
2020/01/22 06:42 EST    4.45   5.10    3   74    3  18.1  36.5 1030.6 -9.9 -9.999 -99.9 -99.99 -9.99
2020/01/22 06:48 EST    4.60   5.25    3   74    4  18.1  36.5 1030.7 -9.9 -9.999 -99.9 -99.99 -9.99
2020/01/22 06:54 EST    4.75   5.39    1   67    3  18.1  36.5 1030.9 -9.9 -9.999 -99.9 -99.99 -9.99
2020/01/22 07:00 EST    4.90   5.52    1  343    4  18.3  36.5 1031.0 -9.9 -9.999 -99.9 -99.99 -9.99
2020/01/22 07:06 EST    5.04   5.65    1   69    2  19.0  36.5 1031.2 -9.9 -9.999 -99.9 -99.99 -9.99
2020/01/22 07:12 EST    5.19   5.78    0   46    1  19.0  36.5 1031.2 -9.9 -9.999 -99.9 -99.99 -9.99
2020/01/22 07:18 EST    5.33   5.90    1   45    2  19.0  36.7 1031.3 -9.9 -9.999 -99.9 -99.99 -9.99
2020/01/22 07:24 EST    5.46   6.01    1   93    2  19.4  36.7 1031.4 -9.9 -9.999 -99.9 -99.99 -9.99
2020/01/22 07:30 EST    5.59   6.13    0  122    2  19.4  36.7 1031.4 -9.9 -9.999 -99.9 -99.99 -9.99
2020/01/22 07:36 EST    5.72   6.25    0   85    1  20.8  36.7 1031.6 -9.9 -9.999 -99.9 -99.99 -9.99
2020/01/22 07:42 EST    5.84   6.36    1  335    3  21.2  36.7 1031.7 -9.9 -9.999 -99.9 -99.99 -9.99
2020/01/22 07:48 EST    5.96   6.46    3  311    4  20.8  36.7 1031.7 -9.9 -9.999 -99.9 -99.99 -9.99
2020/01/22 07:54 EST    6.06   6.55    4  319    5  20.3  36.7 1031.6 -9.9 -9.999 -99.9 -99.99 -9.99
2020/01/22 08:00 EST    6.17   6.64    4  324    5  20.3  36.5 1031.5 -9.9 -9.999 -99.9 -99.99 -9.99
2020/01/22 08:06 EST    6.26   6.74    4  323    5  20.3  36.7 1031.6 -9.9 -9.999 -99.9 -99.99 -9.99
2020/01/22 08:12 EST    6.35   6.82    3  340    5  21.2  36.5 1031.6 -9.9 -9.999 -99.9 -99.99 -9.99
2020/01/22 08:18 EST    6.43   6.92    4  334    5  21.2  36.7 1031.7 -9.9 -9.999 -99.9 -99.99 -9.99
2020/01/22 08:24 EST    6.50   7.02    3  315    5  21.7  36.7 1031.8 -9.9 -9.999 -99.9 -99.99 -9.99
2020/01/22 08:30 EST    6.56   7.10    3  309    4  22.3  36.7 1031.8 -9.9 -9.999 -99.9 -99.99 -9.99
2020/01/22 08:36 EST    6.61   7.17    2  319    4  22.5  36.7 1031.9 -9.9 -9.999 -99.9 -99.99 -9.99
2020/01/22 08:42 EST    6.65   7.23    1  304    4  22.6  36.7 1031.9 -9.9 -9.999 -99.9 -99.99 -9.99
2020/01/22 08:48 EST    6.68   7.29    0  283    1  23.5  36.9 1031.9 -9.9 -9.999 -99.9 -99.99 -9.99
2020/01/22 08:54 EST    6.70   7.34    1  321    2  23.5  36.9 1031.8 -9.9 -9.999 -99.9 -99.99 -9.99
2020/01/22 09:00 EST    6.71   7.37    1  321    3  23.0  36.9 1031.9 -9.9 -9.999 -99.9 -99.99 -9.99
2020/01/22 09:06 EST    6.71   7.37    2  326    2  23.0  36.9 1031.9 -9.9 -9.999 -99.9 -99.99 -9.99
2020/01/22 09:12 EST    6.70   7.37    2  338    3  23.5  36.9 1032.0 -9.9 -9.999 -99.9 -99.99 -9.99
2020/01/22 09:18 EST    6.68   7.37    1  345    3  24.4  36.9 1032.0 -9.9 -9.999 -99.9 -99.99 -9.99
2020/01/22 09:24 EST    6.66   7.35    1   11    3  25.0  36.9 1032.0 -9.9 -9.999 -99.9 -99.99 -9.99
2020/01/22 09:30 EST    6.62   7.33    1   11    3  26.1  36.9 1032.1 -9.9 -9.999 -99.9 -99.99 -9.99
2020/01/22 09:36 EST    6.57   7.30    1   54    2  26.4  36.9 1032.0 -9.9 -9.999 -99.9 -99.99 -9.99
2020/01/22 09:42 EST    6.52   7.24    0  245    1  27.1  36.9 1031.9 -9.9 -9.999 -99.9 -99.99 -9.99
2020/01/22 09:48 EST    6.45   7.16    0  242    1  27.7  36.9 1031.8 -9.9 -9.999 -99.9 -99.99 -9.99
2020/01/22 09:54 EST    6.38   7.07    1  344    2  27.5  36.9 1031.8 -9.9 -9.999 -99.9 -99.99 -9.99
2020/01/22 10:00 EST    6.30   6.98    1  337    2  27.7  36.9 1031.8 -9.9 -9.999 -99.9 -99.99 -9.99
2020/01/22 10:06 EST    6.22   6.89    1  356    2  28.6  36.9 1031.8 -9.9 -9.999 -99.9 -99.99 -9.99
2020/01/22 10:12 EST    6.13   6.79    2  359    4  29.7  36.9 1031.8 -9.9 -9.999 -99.9 -99.99 -9.99
2020/01/22 10:18 EST    6.03   6.69    3    5    6  29.8  36.9 1031.8 -9.9 -9.999 -99.9 -99.99 -9.99
2020/01/22 10:24 EST    5.92   6.59    2   17    5  30.2  36.9 1031.9 -9.9 -9.999 -99.9 -99.99 -9.99
2020/01/22 10:30 EST    5.82   6.49    1  357    4  30.9  36.9 1031.8 -9.9 -9.999 -99.9 -99.99 -9.99
2020/01/22 10:36 EST    5.70   6.36    1  327    3  31.1  36.9 1031.7 -9.9 -9.999 -99.9 -99.99 -9.99
2020/01/22 10:42 EST    5.59   6.21    1  341    4  30.7  36.9 1031.6 -9.9 -9.999 -99.9 -99.99 -9.99
2020/01/22 10:48 EST    5.46   6.07    4  351    7  30.9  36.9 1031.6 -9.9 -9.999 -99.9 -99.99 -9.99
2020/01/22 10:54 EST    5.34   5.94    2  356    7  31.3  36.9 1031.5 -9.9 -9.999 -99.9 -99.99 -9.99
2020/01/22 11:00 EST    5.21   5.78    1    2    5  31.5  36.9 1031.4 -9.9 -9.999 -99.9 -99.99 -9.99
2020/01/22 11:06 EST    5.08   5.63    6  341    9  30.7  36.9 1031.4 -9.9 -9.999 -99.9 -99.99 -9.99
2020/01/22 11:12 EST    4.95   5.48    3  359    9  31.6  36.9 1031.4 -9.9 -9.999 -99.9 -99.99 -9.99
2020/01/22 11:18 EST    4.81   5.32    2   17    6  32.0  36.9 1031.2 -9.9 -9.999 -99.9 -99.99 -9.99
2020/01/22 11:24 EST    4.67   5.17    3  344    8  31.8  36.9 1031.1 -9.9 -9.999 -99.9 -99.99 -9.99
2020/01/22 11:30 EST    4.53   5.01    2  354    5  32.0  36.9 1031.0 -9.9 -9.999 -99.9 -99.99 -9.99
2020/01/22 11:36 EST    4.39   4.85    2  322    4  32.4  36.9 1031.0 -9.9 -9.999 -99.9 -99.99 -9.99
2020/01/22 11:42 EST    4.24   4.72    5  328    6  32.0  36.9 1030.9 -9.9 -9.999 -99.9 -99.99 -9.99
2020/01/22 11:48 EST    4.10   4.55    7  306    9  31.5  36.9 1030.7 -9.9 -9.999 -99.9 -99.99 -9.99
2020/01/22 11:54 EST    3.95   4.38    7  331   10  32.2  36.9 1030.6 -9.9 -9.999 -99.9 -99.99 -9.99
2020/01/22 12:00 EST    3.80   4.21    7  302    8  32.0  36.9 1030.5 -9.9 -9.999 -99.9 -99.99 -9.99
2020/01/22 12:06 EST    3.65   4.04    7  304    9  32.2  36.9 1030.3 -9.9 -9.999 -99.9 -99.99 -9.99
2020/01/22 12:12 EST    3.49   3.88    5  302    7  32.2  37.0 1030.3 -9.9 -9.999 -99.9 -99.99 -9.99
2020/01/22 12:18 EST    3.34   3.72    5  329    8  32.9  37.0 1030.1 -9.9 -9.999 -99.9 -99.99 -9.99
2020/01/22 12:24 EST    3.18   3.58    6  339    9  32.9  37.0 1029.8 -9.9 -9.999 -99.9 -99.99 -9.99
2020/01/22 12:30 EST    3.02   3.45    9  329   11  32.5  37.0 1029.6 -9.9 -9.999 -99.9 -99.99 -9.99
2020/01/22 12:36 EST    2.87   3.31    6  320    8  32.9  37.0 1029.5 -9.9 -9.999 -99.9 -99.99 -9.99
2020/01/22 12:42 EST    2.71   3.19    5  320    9  33.3  37.0 1029.4 -9.9 -9.999 -99.9 -99.99 -9.99
2020/01/22 12:48 EST    2.55   3.04    6  290    8  33.3  37.0 1029.4 -9.9 -9.999 -99.9 -99.99 -9.99
2020/01/22 12:54 EST    2.38   2.89    7  267    9  33.1  37.0 1029.5 -9.9 -9.999 -99.9 -99.99 -9.99
2020/01/22 13:00 EST    2.22   2.73    5  267    7  33.3  37.0 1029.6 -9.9 -9.999 -99.9 -99.99 -9.99
2020/01/22 13:06 EST    2.06   2.56    6  275    6  33.4  37.0 1029.5 -9.9 -9.999 -99.9 -99.99 -9.99
2020/01/22 13:12 EST    1.90   2.39    6  258    8  33.3  37.0 1029.5 -9.9 -9.999 -99.9 -99.99 -9.99
2020/01/22 13:18 EST    1.74   2.22    8  221    9  31.5  37.0 1029.4 -9.9 -9.999 -99.9 -99.99 -9.99
2020/01/22 13:24 EST    1.59   2.08    7  213    9  31.5  37.0 1029.3 -9.9 -9.999 -99.9 -99.99 -9.99
2020/01/22 13:30 EST    1.43   1.95    7  216    8  31.5  37.0 1029.3 -9.9 -9.999 -99.9 -99.99 -9.99
2020/01/22 13:36 EST    1.28   1.83    7  218    8  31.6  37.0 1029.4 -9.9 -9.999 -99.9 -99.99 -9.99
2020/01/22 13:42 EST    1.13   1.71    8  214   10  31.6  37.0 1029.5 -9.9 -9.999 -99.9 -99.99 -9.99
2020/01/22 13:48 EST    0.98   1.56    8  209   10  31.8  37.0 1029.5 -9.9 -9.999 -99.9 -99.99 -9.99
2020/01/22 13:54 EST    0.84   1.40    9  209   11  32.0  37.0 1029.5 -9.9 -9.999 -99.9 -99.99 -9.99
2020/01/22 14:00 EST    0.71   1.27    9  222   10  32.0  37.0 1029.5 -9.9 -9.999 -99.9 -99.99 -9.99
2020/01/22 14:06 EST    0.58   1.09    9  220   11  32.2  37.0 1029.5 -9.9 -9.999 -99.9 -99.99 -9.99
2020/01/22 14:12 EST    0.45   0.95    9  220   10  32.2  37.0 1029.5 -9.9 -9.999 -99.9 -99.99 -9.99
2020/01/22 14:18 EST    0.34   0.83    8  213   10  32.5  37.0 1029.5 -9.9 -9.999 -99.9 -99.99 -9.99
2020/01/22 14:24 EST    0.23   0.71    8  217    9  32.7  37.0 1029.6 -9.9 -9.999 -99.9 -99.99 -9.99
2020/01/22 14:30 EST    0.13   0.61    8  215    9  32.9  37.0 1029.6 -9.9 -9.999 -99.9 -99.99 -9.99
2020/01/22 14:36 EST    0.03   0.53    9  216    9  33.1  37.2 1029.6 -9.9 -9.999 -99.9 -99.99 -9.99
2020/01/22 14:42 EST   -0.05   0.46    9  208   11  33.3  37.2 1029.7 -9.9 -9.999 -99.9 -99.99 -9.99
2020/01/22 14:48 EST   -0.13   0.40    9  215   11  33.6  37.2 1029.7 -9.9 -9.999 -99.9 -99.99 -9.99
2020/01/22 14:54 EST   -0.19   0.35    8  213   11  34.0  37.4 1029.7 -9.9 -9.999 -99.9 -99.99 -9.99
2020/01/22 15:00 EST   -0.25   0.27    9  219   11  33.6  37.6 1029.7 -9.9 -9.999 -99.9 -99.99 -9.99
2020/01/22 15:06 EST   -0.30   0.17    9  235   11  33.8  37.6 1029.6 -9.9 -9.999 -99.9 -99.99 -9.99
2020/01/22 15:12 EST   -0.33   0.07    8  238   11  34.0  37.4 1029.5 -9.9 -9.999 -99.9 -99.99 -9.99
2020/01/22 15:18 EST   -0.36  -0.01    7  242    9  34.3  37.4 1029.4 -9.9 -9.999 -99.9 -99.99 -9.99
2020/01/22 15:24 EST   -0.38  -0.08    7  250    8  34.5  37.6 1029.4 -9.9 -9.999 -99.9 -99.99 -9.99
2020/01/22 15:30 EST   -0.38  -0.12    6  240    8  35.1  37.8 1029.3 -9.9 -9.999 -99.9 -99.99 -9.99
2020/01/22 15:36 EST   -0.38  -0.15    8  230    9  35.2  37.9 1029.3 -9.9 -9.999 -99.9 -99.99 -9.99
2020/01/22 15:42 EST   -0.36  -0.15    8  226    9  35.2  38.1 1029.3 -9.9 -9.999 -99.9 -99.99 -9.99
2020/01/22 15:48 EST   -0.34  -0.13    8  221    9  35.2  38.3 1029.3 -9.9 -9.999 -99.9 -99.99 -9.99
2020/01/22 15:54 EST   -0.31  -0.13    9  224   10  35.2  38.5 1029.4 -9.9 -9.999 -99.9 -99.99 -9.99
2020/01/22 16:00 EST   -0.27  -0.10    8  234   10  35.1  38.5 1029.3 -9.9 -9.999 -99.9 -99.99 -9.99
2020/01/22 16:06 EST   -0.22  -0.08    8  238   10  35.1  38.3 1029.4 -9.9 -9.999 -99.9 -99.99 -9.99
2020/01/22 16:12 EST   -0.16  -0.05    9  233   10  35.2  38.5 1029.4 -9.9 -9.999 -99.9 -99.99 -9.99
2020/01/22 16:18 EST   -0.10   0.00    8  239   10  35.2  38.5 1029.4 -9.9 -9.999 -99.9 -99.99 -9.99
2020/01/22 16:24 EST   -0.03   0.05    7  237    9  35.4  38.5 1029.5 -9.9 -9.999 -99.9 -99.99 -9.99
2020/01/22 16:30 EST    0.05   0.12    7  232    8  35.6  38.7 1029.5 -9.9 -9.999 -99.9 -99.99 -9.99
2020/01/22 16:36 EST    0.14   0.19    7  238    8  35.4  38.5 1029.6 -9.9 -9.999 -99.9 -99.99 -9.99
2020/01/22 16:42 EST    0.23   0.30    6  240    8  35.2  38.7 1029.7 -9.9 -9.999 -99.9 -99.99 -9.99
2020/01/22 16:48 EST    0.32   0.42    6  250    8  35.2  38.7 1029.7 -9.9 -9.999 -99.9 -99.99 -9.99
2020/01/22 16:54 EST    0.42   0.54    5  261    7  35.2  38.5 1029.6 -9.9 -9.999 -99.9 -99.99 -9.99
2020/01/22 17:00 EST    0.53   0.65    6  270    7  35.2  38.3 1029.6 -9.9 -9.999 -99.9 -99.99 -9.99
2020/01/22 17:06 EST    0.63   0.76    6  277    8  35.1  38.1 1029.6 -9.9 -9.999 -99.9 -99.99 -9.99
2020/01/22 17:12 EST    0.75   0.87    6  273    7  35.1  37.9 1029.7 -9.9 -9.999 -99.9 -99.99 -9.99
2020/01/22 17:18 EST    0.86   0.98    7  277    8  35.1  37.8 1029.7 -9.9 -9.999 -99.9 -99.99 -9.99
2020/01/22 17:24 EST    0.98   1.13    5  275    7  35.1  37.8 1029.8 -9.9 -9.999 -99.9 -99.99 -9.99
2020/01/22 17:30 EST    1.10   1.26    6  279    7  35.1  37.6 1029.8 -9.9 -9.999 -99.9 -99.99 -9.99
2020/01/22 17:36 EST    1.23   1.42    4  275    7  34.9  37.6 1029.9 -9.9 -9.999 -99.9 -99.99 -9.99
2020/01/22 17:42 EST    1.36   1.58    4  253    5  34.7  37.4 1030.0 -9.9 -9.999 -99.9 -99.99 -9.99
2020/01/22 17:48 EST    1.49   1.74    4  260    4  34.7  37.4 1029.9 -9.9 -9.999 -99.9 -99.99 -9.99
2020/01/22 17:54 EST    1.62   1.88    3  246    4  34.7  37.4 1030.0 -9.9 -9.999 -99.9 -99.99 -9.99
2020/01/22 18:00 EST    1.75   2.03    3  225    4  34.5  37.4 1030.1 -9.9 -9.999 -99.9 -99.99 -9.99
2020/01/22 18:06 EST    1.89   2.17    4  272    5  34.5  37.4 1030.0 -9.9 -9.999 -99.9 -99.99 -9.99
2020/01/22 18:12 EST    2.03   2.31    3  284    5  34.3  37.4 1029.9 -9.9 -9.999 -99.9 -99.99 -9.99
2020/01/22 18:18 EST    2.17   2.47    2  277    3  34.2  37.6 1029.9 -9.9 -9.999 -99.9 -99.99 -9.99
2020/01/22 18:24 EST    2.31   2.56    1  282    2  34.2  37.6 1029.9 -9.9 -9.999 -99.9 -99.99 -9.99
2020/01/22 18:30 EST    2.45   2.71    0  310    1  34.0  37.6 1030.0 -9.9 -9.999 -99.9 -99.99 -9.99
2020/01/22 18:36 EST    2.60   2.88    2  294    3  34.3  37.6 1030.0 -9.9 -9.999 -99.9 -99.99 -9.99
2020/01/22 18:42 EST    2.74   3.04    3  321    4  34.2  37.6 1029.9 -9.9 -9.999 -99.9 -99.99 -9.99
2020/01/22 18:48 EST    2.89   3.18    5  307    6  34.2  37.6 1029.8 -9.9 -9.999 -99.9 -99.99 -9.99
2020/01/22 18:54 EST    3.04   3.30    5  316    6  33.8  37.4 1029.8 -9.9 -9.999 -99.9 -99.99 -9.99
2020/01/22 19:00 EST    3.19   3.43    4  301    6  34.0  37.4 1029.9 -9.9 -9.999 -99.9 -99.99 -9.99
2020/01/22 19:06 EST    3.34   3.56    0  291    4  33.6  37.2 1030.0 -9.9 -9.999 -99.9 -99.99 -9.99
2020/01/22 19:12 EST    3.48   3.70    1  279    2  33.6  37.2 1030.1 -9.9 -9.999 -99.9 -99.99 -9.99
2020/01/22 19:18 EST    3.63   3.84    3  307    3  33.4  37.0 1030.1 -9.9 -9.999 -99.9 -99.99 -9.99
2020/01/22 19:24 EST    3.78   3.95    3  333    4  33.3  37.0 1030.1 -9.9 -9.999 -99.9 -99.99 -9.99
2020/01/22 19:30 EST    3.93   4.06    1  111    2  32.9  37.0 1030.2 -9.9 -9.999 -99.9 -99.99 -9.99
2020/01/22 19:36 EST    4.07   4.16    1  154    1  32.9  37.0 1030.1 -9.9 -9.999 -99.9 -99.99 -9.99
2020/01/22 19:42 EST    4.21   4.28    3  167    4  31.8  37.0 1030.2 -9.9 -9.999 -99.9 -99.99 -9.99
2020/01/22 19:48 EST    4.35   4.40    2  165    4  32.2  37.2 1030.2 -9.9 -9.999 -99.9 -99.99 -9.99
2020/01/22 19:54 EST    4.49   4.51    2  159    3  32.7  37.2 1030.1 -9.9 -9.999 -99.9 -99.99 -9.99
2020/01/22 20:00 EST    4.62   4.65    0  224    2  32.7  37.2 1030.3 -9.9 -9.999 -99.9 -99.99 -9.99
2020/01/22 20:06 EST    4.75   4.78    0  193    1  32.7  37.4 1030.4 -9.9 -9.999 -99.9 -99.99 -9.99
2020/01/22 20:12 EST    4.87   4.89    1  190    2  32.4  37.4 1030.4 -9.9 -9.999 -99.9 -99.99 -9.99
2020/01/22 20:18 EST    4.98   4.97    2  299    3  32.9  37.4 1030.4 -9.9 -9.999 -99.9 -99.99 -9.99
2020/01/22 20:24 EST    5.09   5.07    1  264    2  32.7  37.2 1030.4 -9.9 -9.999 -99.9 -99.99 -9.99
2020/01/22 20:30 EST    5.20   5.16    1  249    2  32.2  37.2 1030.4 -9.9 -9.999 -99.9 -99.99 -9.99
2020/01/22 20:36 EST    5.29   5.26    0  249    1  32.0  37.2 1030.3 -9.9 -9.999 -99.9 -99.99 -9.99
2020/01/22 20:42 EST    5.38   5.36    0  249    0  31.6  37.2 1030.4 -9.9 -9.999 -99.9 -99.99 -9.99
2020/01/22 20:48 EST    5.46   5.46    0  249    0  31.6  37.0 1030.3 -9.9 -9.999 -99.9 -99.99 -9.99
2020/01/22 20:54 EST    5.53   5.55    1   47    2  31.5  37.0 1030.2 -9.9 -9.999 -99.9 -99.99 -9.99
2020/01/22 21:00 EST    5.59   5.64    1   35    3  31.3  37.0 1030.1 -9.9 -9.999 -99.9 -99.99 -9.99
2020/01/22 21:06 EST    5.65   5.71    0   53    2  31.3  37.0 1030.1 -9.9 -9.999 -99.9 -99.99 -9.99
2020/01/22 21:12 EST    5.69   5.77    0   45    0  31.3  37.0 1030.0 -9.9 -9.999 -99.9 -99.99 -9.99
2020/01/22 21:18 EST    5.72   5.84    0   45    0  31.3  37.0 1030.0 -9.9 -9.999 -99.9 -99.99 -9.99
2020/01/22 21:24 EST    5.75   5.90    0   45    0  31.1  37.0 1030.0 -9.9 -9.999 -99.9 -99.99 -9.99
2020/01/22 21:30 EST    5.76   5.94    0   18    1  30.9  37.0 1029.9 -9.9 -9.999 -99.9 -99.99 -9.99
2020/01/22 21:36 EST    5.77   5.97    1   35    1  30.6  36.9 1030.0 -9.9 -9.999 -99.9 -99.99 -9.99
2020/01/22 21:42 EST    5.76   5.98    1   15    2  30.4  36.9 1030.1 -9.9 -9.999 -99.9 -99.99 -9.99
2020/01/22 21:48 EST    5.75   5.99    0   15    1  30.6  36.9 1030.1 -9.9 -9.999 -99.9 -99.99 -9.99
2020/01/22 21:54 EST    5.73   5.99    1   44    1  30.2  36.9 1030.2 -9.9 -9.999 -99.9 -99.99 -9.99
2020/01/22 22:00 EST    5.70   5.98    1   73    2  30.2  36.9 1030.2 -9.9 -9.999 -99.9 -99.99 -9.99
2020/01/22 22:06 EST    5.66   5.98    0   66    1  29.5  36.9 1030.2 -9.9 -9.999 -99.9 -99.99 -9.99
2020/01/22 22:12 EST    5.61   5.95    0   67    0  28.9  36.9 1030.1 -9.9 -9.999 -99.9 -99.99 -9.99
2020/01/22 22:18 EST    5.55   5.88    1  158    1  29.3  36.9 1030.1 -9.9 -9.999 -99.9 -99.99 -9.99
2020/01/22 22:24 EST    5.49   5.81    0  166    1  29.3  36.9 1030.1 -9.9 -9.999 -99.9 -99.99 -9.99
2020/01/22 22:30 EST    5.42   5.74    0  166    0  29.3  36.9 1030.1 -9.9 -9.999 -99.9 -99.99 -9.99
2020/01/22 22:36 EST    5.35   5.66    1  292    1  29.5  36.9 1030.1 -9.9 -9.999 -99.9 -99.99 -9.99
2020/01/22 22:42 EST    5.27   5.55    1   19    1  29.1  36.9 1030.1 -9.9 -9.999 -99.9 -99.99 -9.99
2020/01/22 22:48 EST    5.18   5.44    2  345    3  29.3  36.9 1030.1 -9.9 -9.999 -99.9 -99.99 -9.99
2020/01/22 22:54 EST    5.09   5.36    2  350    3  29.3  36.9 1030.2 -9.9 -9.999 -99.9 -99.99 -9.99
2020/01/22 23:00 EST    4.99   5.28    0    5    3  28.9  36.9 1030.3 -9.9 -9.999 -99.9 -99.99 -9.99
2020/01/22 23:06 EST    4.89   5.21    0  125    1  28.8  36.9 1030.3 -9.9 -9.999 -99.9 -99.99 -9.99
2020/01/22 23:12 EST    4.79   5.12    0  125    0  28.6  36.9 1030.2 -9.9 -9.999 -99.9 -99.99 -9.99
2020/01/22 23:18 EST    4.68   5.02    1   32    1  28.4  36.9 1030.2 -9.9 -9.999 -99.9 -99.99 -9.99
2020/01/22 23:24 EST    4.57   4.92    1  359    2  28.2  36.9 1030.1 -9.9 -9.999 -99.9 -99.99 -9.99
2020/01/22 23:30 EST    4.46   4.80    0   46    1  28.2  36.9 1030.0 -9.9 -9.999 -99.9 -99.99 -9.99
2020/01/22 23:36 EST    4.35   4.64    1   18    2  28.2  36.9 1029.9 -9.9 -9.999 -99.9 -99.99 -9.99
2020/01/22 23:42 EST    4.23   4.48    1   64    2  28.0  36.9 1029.9 -9.9 -9.999 -99.9 -99.99 -9.99
2020/01/22 23:48 EST    4.11   4.30    2   54    4  27.9  36.9 1029.8 -9.9 -9.999 -99.9 -99.99 -9.99
2020/01/22 23:54 EST    3.99   4.13    3   49    4  27.7  36.9 1029.5 -9.9 -9.999 -99.9 -99.99 -9.99
2020/01/23 00:00 EST    3.87   3.97    3   54    4  27.5  36.7 1029.4 -9.9 -9.999 -99.9 -99.99 -9.99
2020/01/23 00:06 EST    3.74   3.84    3   63    5  27.3  36.7 1029.4 -9.9 -9.999 -99.9 -99.99 -9.99
2020/01/23 00:12 EST    3.62   3.72    3   51    5  27.5  36.7 1029.3 -9.9 -9.999 -99.9 -99.99 -9.99
2020/01/23 00:18 EST    3.49   3.63    1   47    4  27.9  36.7 1029.3 -9.9 -9.999 -99.9 -99.99 -9.99
2020/01/23 00:24 EST    3.36   3.54    3   49    4  27.7  36.7 1029.3 -9.9 -9.999 -99.9 -99.99 -9.99
2020/01/23 00:30 EST    3.23   3.43    2   44    3  27.3  36.7 1029.2 -9.9 -9.999 -99.9 -99.99 -9.99
2020/01/23 00:36 EST    3.10   3.30    1   41    3  27.3  36.5 1029.3 -9.9 -9.999 -99.9 -99.99 -9.99
2020/01/23 00:42 EST    2.97   3.14    3   49    3  27.0  36.5 1029.1 -9.9 -9.999 -99.9 -99.99 -9.99
2020/01/23 00:48 EST    2.84   2.99    3   54    4  26.8  36.5 1029.1 -9.9 -9.999 -99.9 -99.99 -9.99
2020/01/23 00:54 EST    2.70   2.82    2   55    3  26.6  36.5 1028.9 -9.9 -9.999 -99.9 -99.99 -9.99
2020/01/23 01:00 EST    2.57   2.67    3   33    4  26.6  36.7 1028.8 -9.9 -9.999 -99.9 -99.99 -9.99
2020/01/23 01:06 EST    2.43   2.53    0   13    4  27.0  36.7 1028.9 -9.9 -9.999 -99.9 -99.99 -9.99
2020/01/23 01:12 EST    2.30   2.41    1   48    2  27.0  36.7 1029.0 -9.9 -9.999 -99.9 -99.99 -9.99
2020/01/23 01:18 EST    2.16   2.32    2   44    3  26.8  36.7 1029.0 -9.9 -9.999 -99.9 -99.99 -9.99
2020/01/23 01:24 EST    2.02   2.25    1   59    3  26.6  36.7 1029.0 -9.9 -9.999 -99.9 -99.99 -9.99
2020/01/23 01:30 EST    1.89   2.15    2   48    2  26.6  36.7 1029.1 -9.9 -9.999 -99.9 -99.99 -9.99
2020/01/23 01:36 EST    1.75   2.04    0  119    2  26.8  36.7 1029.3 -9.9 -9.999 -99.9 -99.99 -9.99
2020/01/23 01:42 EST    1.62   1.91    0   98    1  27.0  36.7 1029.3 -9.9 -9.999 -99.9 -99.99 -9.99
2020/01/23 01:48 EST    1.49   1.77    1   58    2  26.6  36.7 1029.4 -9.9 -9.999 -99.9 -99.99 -9.99
2020/01/23 01:54 EST    1.36   1.63    0   58    1  26.6  36.7 1029.4 -9.9 -9.999 -99.9 -99.99 -9.99
2020/01/23 02:00 EST    1.24   1.52    1   39    1  26.6  36.7 1029.4 -9.9 -9.999 -99.9 -99.99 -9.99
2020/01/23 02:06 EST    1.11   1.41    1   38    3  26.4  36.7 1029.4 -9.9 -9.999 -99.9 -99.99 -9.99
2020/01/23 02:12 EST    0.99   1.31    2   46    3  26.1  36.7 1029.3 -9.9 -9.999 -99.9 -99.99 -9.99
2020/01/23 02:18 EST    0.88   1.21    3   47    3  25.7  36.7 1029.2 -9.9 -9.999 -99.9 -99.99 -9.99
2020/01/23 02:24 EST    0.77   1.13    2   39    4  25.9  36.7 1029.0 -9.9 -9.999 -99.9 -99.99 -9.99
2020/01/23 02:30 EST    0.67   1.06    2   24    4  26.1  36.7 1028.8 -9.9 -9.999 -99.9 -99.99 -9.99
2020/01/23 02:36 EST    0.57   0.99    1   52    4  26.1  36.9 1028.8 -9.9 -9.999 -99.9 -99.99 -9.99
2020/01/23 02:42 EST    0.48   0.92    3   68    4  25.7  36.9 1029.0 -9.9 -9.999 -99.9 -99.99 -9.99
2020/01/23 02:48 EST    0.40   0.85    0  116    3  25.7  36.9 1029.0 -9.9 -9.999 -99.9 -99.99 -9.99
2020/01/23 02:54 EST    0.32   0.77    2   49    3  25.7  36.9 1028.9 -9.9 -9.999 -99.9 -99.99 -9.99
2020/01/23 03:00 EST    0.26   0.72    1   67    3  25.7  36.9 1028.9 -9.9 -9.999 -99.9 -99.99 -9.99
2020/01/23 03:06 EST    0.20   0.68    2   51    3  25.9  36.9 1028.8 -9.9 -9.999 -99.9 -99.99 -9.99
2020/01/23 03:12 EST    0.15   0.65    3   43    3  25.7  36.9 1028.6 -9.9 -9.999 -99.9 -99.99 -9.99
2020/01/23 03:18 EST    0.11   0.62    1   41    4  25.3  36.9 1028.6 -9.9 -9.999 -99.9 -99.99 -9.99
2020/01/23 03:24 EST    0.08   0.57    2   54    3  25.3  36.9 1028.5 -9.9 -9.999 -99.9 -99.99 -9.99
2020/01/23 03:30 EST    0.06   0.52    3   51    4  25.2  36.9 1028.5 -9.9 -9.999 -99.9 -99.99 -9.99
2020/01/23 03:36 EST    0.05   0.47    4   50    4  25.2  36.9 1028.4 -9.9 -9.999 -99.9 -99.99 -9.99
2020/01/23 03:42 EST    0.06   0.42    2   58    4  25.0  36.9 1028.4 -9.9 -9.999 -99.9 -99.99 -9.99
2020/01/23 03:48 EST    0.07   0.41    2   60    3  25.5  37.0 1028.4 -9.9 -9.999 -99.9 -99.99 -9.99
2020/01/23 03:54 EST    0.09   0.42    1   53    2  25.9  37.0 1028.5 -9.9 -9.999 -99.9 -99.99 -9.99
2020/01/23 04:00 EST    0.12   0.44    0   87    1  25.9  37.0 1028.6 -9.9 -9.999 -99.9 -99.99 -9.99
2020/01/23 04:06 EST    0.15   0.49    2  164    3  25.7  37.0 1028.5 -9.9 -9.999 -99.9 -99.99 -9.99
2020/01/23 04:12 EST    0.20   0.53    0  175    2  25.5  36.9 1028.3 -9.9 -9.999 -99.9 -99.99 -9.99
2020/01/23 04:18 EST    0.26   0.57    0  171    1  25.9  36.9 1028.4 -9.9 -9.999 -99.9 -99.99 -9.99
2020/01/23 04:24 EST    0.33   0.62    0  177    2  26.1  36.9 1028.3 -9.9 -9.999 -99.9 -99.99 -9.99
2020/01/23 04:30 EST    0.40   0.66    1  231    2  27.0  37.0 1028.4 -9.9 -9.999 -99.9 -99.99 -9.99
2020/01/23 04:36 EST    0.48   0.75    2  242    3  27.0  37.0 1028.6 -9.9 -9.999 -99.9 -99.99 -9.99
2020/01/23 04:42 EST    0.57   0.84    1  169    3  26.4  37.0 1028.5 -9.9 -9.999 -99.9 -99.99 -9.99
2020/01/23 04:48 EST    0.66   0.95    1  272    1  26.8  37.0 1028.5 -9.9 -9.999 -99.9 -99.99 -9.99
2020/01/23 04:54 EST    0.76   1.07    0  271    1  27.0  37.0 1028.6 -9.9 -9.999 -99.9 -99.99 -9.99
2020/01/23 05:00 EST    0.87   1.19    1  159    1  26.8  36.9 1028.7 -9.9 -9.999 -99.9 -99.99 -9.99
2020/01/23 05:06 EST    0.98   1.31    1  152    1  26.4  36.9 1028.8 -9.9 -9.999 -99.9 -99.99 -9.99
2020/01/23 05:12 EST    1.10   1.45    1  162    1  26.4  36.9 1028.8 -9.9 -9.999 -99.9 -99.99 -9.99
2020/01/23 05:18 EST    1.22   1.56    0  166    1  26.4  36.7 1028.8 -9.9 -9.999 -99.9 -99.99 -9.99
2020/01/23 05:24 EST    1.34   1.68    1  266    2  27.1  36.7 1028.8 -9.9 -9.999 -99.9 -99.99 -9.99
2020/01/23 05:30 EST    1.47   1.78    1  288    2  27.1  36.7 1028.8 -9.9 -9.999 -99.9 -99.99 -9.99
2020/01/23 05:36 EST    1.60   1.88    2  181    2  27.0  36.7 1028.8 -9.9 -9.999 -99.9 -99.99 -9.99
2020/01/23 05:42 EST    1.74   2.01    1  213    2  26.6  36.7 1028.8 -9.9 -9.999 -99.9 -99.99 -9.99
2020/01/23 05:48 EST    1.88   2.17    2  222    2  26.8  36.7 1028.9 -9.9 -9.999 -99.9 -99.99 -9.99
2020/01/23 05:54 EST    2.01   2.34    2  246    2  27.0  36.7 1028.8 -9.9 -9.999 -99.9 -99.99 -9.99
2020/01/23 06:00 EST    2.16   2.51    2  259    2  27.0  36.7 1028.9 -9.9 -9.999 -99.9 -99.99 -9.99
2020/01/23 06:06 EST    2.30   2.68    2  286    2  26.4  36.5 1028.9 -9.9 -9.999 -99.9 -99.99 -9.99
2020/01/23 06:12 EST    2.44   2.86    1  277    2  26.4  36.5 1029.0 -9.9 -9.999 -99.9 -99.99 -9.99
2020/01/23 06:18 EST    2.59   3.04    1  272    1  26.4  36.3 1029.0 -9.9 -9.999 -99.9 -99.99 -9.99
2020/01/23 06:24 EST    2.74   3.22    0  271    1  26.4  36.3 1029.0 -9.9 -9.999 -99.9 -99.99 -9.99
2020/01/23 06:30 EST    2.88   3.37    1  291    2  26.6  36.3 1029.0 -9.9 -9.999 -99.9 -99.99 -9.99
2020/01/23 06:36 EST    3.03   3.49    1  332    2  26.2  36.3 1029.1 -9.9 -9.999 -99.9 -99.99 -9.99
2020/01/23 06:42 EST    3.18   3.61    1  342    1  26.1  36.3 1029.1 -9.9 -9.999 -99.9 -99.99 -9.99
2020/01/23 06:48 EST    3.34   3.73    0  226    0  25.9  36.1 1029.2 -9.9 -9.999 -99.9 -99.99 -9.99
2020/01/23 06:54 EST    3.49   3.88    0  293    0  25.9  36.3 1029.2 -9.9 -9.999 -99.9 -99.99 -9.99
2020/01/23 07:00 EST    3.64   4.03    1    3    1  25.9  36.3 1029.3 -9.9 -9.999 -99.9 -99.99 -9.99
2020/01/23 07:06 EST    3.79   4.18    1  327    1  25.9  36.3 1029.3 -9.9 -9.999 -99.9 -99.99 -9.99
2020/01/23 07:12 EST    3.95   4.33    0   18    1  25.9  36.5 1029.3 -9.9 -9.999 -99.9 -99.99 -9.99
2020/01/23 07:18 EST    4.10   4.47    0  279    1  25.7  36.5 1029.3 -9.9 -9.999 -99.9 -99.99 -9.99
2020/01/23 07:24 EST    4.25   4.61    1  294    1  26.2  36.7 1029.4 -9.9 -9.999 -99.9 -99.99 -9.99
2020/01/23 07:30 EST    4.41   4.77    1  311    1  26.4  36.7 1029.4 -9.9 -9.999 -99.9 -99.99 -9.99
2020/01/23 07:36 EST    4.56   4.90    2  321    2  26.4  36.7 1029.5 -9.9 -9.999 -99.9 -99.99 -9.99
2020/01/23 07:42 EST    4.71   5.01    2  313    2  26.6  36.7 1029.5 -9.9 -9.999 -99.9 -99.99 -9.99
2020/01/23 07:48 EST    4.86   5.12    2  349    3  26.2  36.9 1029.5 -9.9 -9.999 -99.9 -99.99 -9.99
2020/01/23 07:54 EST    5.00   5.25    1  351    3  27.0  36.9 1029.5 -9.9 -9.999 -99.9 -99.99 -9.99
2020/01/23 08:00 EST    5.15   5.39    1   75    2  30.2  36.9 1029.5 -9.9 -9.999 -99.9 -99.99 -9.99
2020/01/23 08:06 EST    5.29   5.55    2   61    2  28.9  36.9 1029.4 -9.9 -9.999 -99.9 -99.99 -9.99
2020/01/23 08:12 EST    5.42   5.70    1   60    2  30.4  36.9 1029.4 -9.9 -9.999 -99.9 -99.99 -9.99
2020/01/23 08:18 EST    5.56   5.85    0   96    0  33.6  36.9 1029.4 -9.9 -9.999 -99.9 -99.99 -9.99
2020/01/23 08:24 EST    5.69   5.97    0   96    1  33.6  36.9 1029.4 -9.9 -9.999 -99.9 -99.99 -9.99
2020/01/23 08:30 EST    5.81   6.06    0  305    1  32.0  36.9 1029.4 -9.9 -9.999 -99.9 -99.99 -9.99
2020/01/23 08:36 EST    5.93   6.17    0  232    1  32.9  36.9 1029.4 -9.9 -9.999 -99.9 -99.99 -9.99
2020/01/23 08:42 EST    6.04   6.26    0  244    1  33.1  36.9 1029.4 -9.9 -9.999 -99.9 -99.99 -9.99
2020/01/23 08:48 EST    6.14   6.36    0  262    1  31.1  36.9 1029.4 -9.9 -9.999 -99.9 -99.99 -9.99
2020/01/23 08:54 EST    6.24   6.43    1  272    2  30.6  36.9 1029.4 -9.9 -9.999 -99.9 -99.99 -9.99
2020/01/23 09:00 EST    6.33   6.51    1  272    2  29.7  36.9 1029.5 -9.9 -9.999 -99.9 -99.99 -9.99
2020/01/23 09:06 EST    6.41   6.60    1  268    2  29.8  36.9 1029.6 -9.9 -9.999 -99.9 -99.99 -9.99
2020/01/23 09:12 EST    6.48   6.69    1  239    1  30.9  36.9 1029.7 -9.9 -9.999 -99.9 -99.99 -9.99
2020/01/23 09:18 EST    6.54   6.76    1  246    2  30.7  36.9 1029.8 -9.9 -9.999 -99.9 -99.99 -9.99
2020/01/23 09:24 EST    6.59   6.81    0  257    1  32.0  36.9 1029.8 -9.9 -9.999 -99.9 -99.99 -9.99
2020/01/23 09:30 EST    6.64   6.87    1  157    2  31.1  36.9 1029.8 -9.9 -9.999 -99.9 -99.99 -9.99
2020/01/23 09:36 EST    6.67   6.93    0  154    2  31.5  36.9 1029.8 -9.9 -9.999 -99.9 -99.99 -9.99
2020/01/23 09:42 EST    6.69   7.00    0  152    1  32.2  36.9 1029.7 -9.9 -9.999 -99.9 -99.99 -9.99
2020/01/23 09:48 EST    6.71   7.04    0  152    1  32.5  36.9 1029.7 -9.9 -9.999 -99.9 -99.99 -9.99
2020/01/23 09:54 EST    6.71   7.06    0  152    1  32.5  36.9 1029.7 -9.9 -9.999 -99.9 -99.99 -9.99
2020/01/23 10:00 EST    6.70   7.06    1  152    1  32.0  36.9 1029.6 -9.9 -9.999 -99.9 -99.99 -9.99
2020/01/23 10:06 EST    6.68   7.05    1  155    1  32.0  36.9 1029.7 -9.9 -9.999 -99.9 -99.99 -9.99
2020/01/23 10:12 EST    6.65   7.03    3  159    3  32.2  36.9 1029.7 -9.9 -9.999 -99.9 -99.99 -9.99
2020/01/23 10:18 EST    6.62   7.00    3  166    3  32.9  36.9 1029.8 -9.9 -9.999 -99.9 -99.99 -9.99
2020/01/23 10:24 EST    6.57   6.96    2  195    3  33.8  36.9 1029.8 -9.9 -9.999 -99.9 -99.99 -9.99
2020/01/23 10:30 EST    6.52   6.92    4  196    4  34.5  37.0 1029.8 -9.9 -9.999 -99.9 -99.99 -9.99
2020/01/23 10:36 EST    6.45   6.85    4  200    5  34.7  37.0 1029.7 -9.9 -9.999 -99.9 -99.99 -9.99
2020/01/23 10:42 EST    6.38   6.77    4  194    5  34.7  37.0 1029.7 -9.9 -9.999 -99.9 -99.99 -9.99
2020/01/23 10:48 EST    6.30   6.68    4  205    5  34.9  37.0 1029.6 -9.9 -9.999 -99.9 -99.99 -9.99
2020/01/23 10:54 EST    6.21   6.59    5  201    6  34.7  37.0 1029.7 -9.9 -9.999 -99.9 -99.99 -9.99
2020/01/23 11:00 EST    6.12   6.52    4  198    6  34.7  37.0 1029.6 -9.9 -9.999 -99.9 -99.99 -9.99
2020/01/23 11:06 EST    6.02   6.43    4  189    5  34.5  37.0 1029.5 -9.9 -9.999 -99.9 -99.99 -9.99
2020/01/23 11:12 EST    5.92   6.32    5  196    5  34.7  37.0 1029.4 -9.9 -9.999 -99.9 -99.99 -9.99
2020/01/23 11:18 EST    5.81   6.18    4  185    6  34.3  37.0 1029.3 -9.9 -9.999 -99.9 -99.99 -9.99
2020/01/23 11:24 EST    5.69   6.03    5  190    6  34.7  37.0 1029.0 -9.9 -9.999 -99.9 -99.99 -9.99
2020/01/23 11:30 EST    5.57   5.91    5  188    6  34.9  37.0 1028.9 -9.9 -9.999 -99.9 -99.99 -9.99
2020/01/23 11:36 EST    5.45   5.76    5  199    6  35.2  37.0 1028.9 -9.9 -9.999 -99.9 -99.99 -9.99
2020/01/23 11:42 EST    5.32   5.60    7  197    7  35.4  37.0 1029.0 -9.9 -9.999 -99.9 -99.99 -9.99
2020/01/23 11:48 EST    5.19   5.43    7  203    8  35.6  37.0 1028.9 -9.9 -9.999 -99.9 -99.99 -9.99
2020/01/23 11:54 EST    5.06   5.27    7  208    9  35.8  37.0 1028.8 -9.9 -9.999 -99.9 -99.99 -9.99
2020/01/23 12:00 EST    4.92   5.14    7  206    8  36.1  37.0 1028.8 -9.9 -9.999 -99.9 -99.99 -9.99
2020/01/23 12:06 EST    4.78   4.98    8  207    9  36.1  37.0 1028.8 -9.9 -9.999 -99.9 -99.99 -9.99
2020/01/23 12:12 EST    4.64   4.85    7  205    9  36.3  37.0 1028.7 -9.9 -9.999 -99.9 -99.99 -9.99
2020/01/23 12:18 EST    4.50   4.72    8  218   10  36.1  37.0 1028.7 -9.9 -9.999 -99.9 -99.99 -9.99
2020/01/23 12:24 EST    4.35   4.58    9  223   11  36.1  37.0 1028.6 -9.9 -9.999 -99.9 -99.99 -9.99
2020/01/23 12:30 EST    4.20   4.42    9  225   11  36.3  37.0 1028.4 -9.9 -9.999 -99.9 -99.99 -9.99
2020/01/23 12:36 EST    4.06   4.26    9  234   11  36.1  37.0 1028.2 -9.9 -9.999 -99.9 -99.99 -9.99
2020/01/23 12:42 EST    3.91   4.07    9  230   10  36.3  37.0 1028.2 -9.9 -9.999 -99.9 -99.99 -9.99
2020/01/23 12:48 EST    3.75   3.86    7  221   10  36.5  37.0 1028.0 -9.9 -9.999 -99.9 -99.99 -9.99
2020/01/23 12:54 EST    3.60   3.68    7  225    9  36.7  37.0 1027.9 -9.9 -9.999 -99.9 -99.99 -9.99
2020/01/23 13:00 EST    3.45   3.50    8  226    9  36.9  37.0 1027.7 -9.9 -9.999 -99.9 -99.99 -9.99
2020/01/23 13:06 EST    3.29   3.35    7  224    8  37.0  37.0 1027.6 -9.9 -9.999 -99.9 -99.99 -9.99
2020/01/23 13:12 EST    3.13   3.22    6  220    7  37.2  37.0 1027.4 -9.9 -9.999 -99.9 -99.99 -9.99
2020/01/23 13:18 EST    2.97   3.09    7  235    8  37.4  37.0 1027.3 -9.9 -9.999 -99.9 -99.99 -9.99
2020/01/23 13:24 EST    2.81   2.96    7  239    8  37.6  37.0 1027.2 -9.9 -9.999 -99.9 -99.99 -9.99
2020/01/23 13:30 EST    2.65   2.84    7  236    8  37.8  37.0 1027.1 -9.9 -9.999 -99.9 -99.99 -9.99
2020/01/23 13:36 EST    2.49   2.69    7  235    8  37.9  37.0 1027.1 -9.9 -9.999 -99.9 -99.99 -9.99
2020/01/23 13:42 EST    2.33   2.52    6  238    7  37.9  37.0 1027.0 -9.9 -9.999 -99.9 -99.99 -9.99
2020/01/23 13:48 EST    2.17   2.37    6  228    7  38.3  37.0 1027.0 -9.9 -9.999 -99.9 -99.99 -9.99
2020/01/23 13:54 EST    2.01   2.22    6  226    7  38.5  37.2 1027.1 -9.9 -9.999 -99.9 -99.99 -9.99
2020/01/23 14:00 EST    1.85   2.09    5  224    6  38.7  37.2 1027.0 -9.9 -9.999 -99.9 -99.99 -9.99
2020/01/23 14:06 EST    1.69   1.94    5  225    6  38.8  37.2 1027.0 -9.9 -9.999 -99.9 -99.99 -9.99
2020/01/23 14:12 EST    1.54   1.83    5  222    6  39.0  37.2 1027.0 -9.9 -9.999 -99.9 -99.99 -9.99
2020/01/23 14:18 EST    1.38   1.72    5  220    6  39.0  37.2 1027.1 -9.9 -9.999 -99.9 -99.99 -9.99
2020/01/23 14:24 EST    1.23   1.59    4  229    6  38.8  37.2 1027.0 -9.9 -9.999 -99.9 -99.99 -9.99
2020/01/23 14:30 EST    1.08   1.45    5  233    5  38.8  37.2 1027.0 -9.9 -9.999 -99.9 -99.99 -9.99
2020/01/23 14:36 EST    0.94   1.30    5  222    6  39.0  37.2 1027.1 -9.9 -9.999 -99.9 -99.99 -9.99
2020/01/23 14:42 EST    0.80   1.13    5  222    6  39.0  37.2 1027.2 -9.9 -9.999 -99.9 -99.99 -9.99
2020/01/23 14:48 EST    0.66   1.00    5  213    6  39.0  37.2 1027.3 -9.9 -9.999 -99.9 -99.99 -9.99
2020/01/23 14:54 EST    0.53   0.84    5  213    6  39.0  37.4 1027.1 -9.9 -9.999 -99.9 -99.99 -9.99
2020/01/23 15:00 EST    0.41   0.72    5  226    6  39.0  37.4 1027.1 -9.9 -9.999 -99.9 -99.99 -9.99
2020/01/23 15:06 EST    0.29   0.61    6  224    7  39.0  37.4 1027.1 -9.9 -9.999 -99.9 -99.99 -9.99
2020/01/23 15:12 EST    0.18   0.50    5  225    6  38.8  37.4 1027.0 -9.9 -9.999 -99.9 -99.99 -9.99
2020/01/23 15:18 EST    0.08   0.39    5  227    6  38.7  37.6 1026.9 -9.9 -9.999 -99.9 -99.99 -9.99
2020/01/23 15:24 EST   -0.01   0.31    4  209    5  39.0  37.6 1026.8 -9.9 -9.999 -99.9 -99.99 -9.99
2020/01/23 15:30 EST   -0.09   0.22    3  174    4  38.3  37.6 1026.6 -9.9 -9.999 -99.9 -99.99 -9.99
2020/01/23 15:36 EST   -0.17   0.14    3  177    3  38.3  37.8 1026.6 -9.9 -9.999 -99.9 -99.99 -9.99
2020/01/23 15:42 EST   -0.23   0.06    4  180    4  38.3  37.8 1026.6 -9.9 -9.999 -99.9 -99.99 -9.99
2020/01/23 15:48 EST   -0.29  -0.00    4  179    4  38.3  37.8 1026.7 -9.9 -9.999 -99.9 -99.99 -9.99
2020/01/23 15:54 EST   -0.33  -0.06    4  176    5  38.1  37.8 1026.6 -9.9 -9.999 -99.9 -99.99 -9.99
2020/01/23 16:00 EST   -0.37  -0.10    2  170    4  38.1  37.6 1026.5 -9.9 -9.999 -99.9 -99.99 -9.99
2020/01/23 16:06 EST   -0.39  -0.15    3  165    3  37.9  37.6 1026.5 -9.9 -9.999 -99.9 -99.99 -9.99
2020/01/23 16:12 EST   -0.41  -0.21    3  163    4  38.1  37.4 1026.6 -9.9 -9.999 -99.9 -99.99 -9.99
2020/01/23 16:18 EST   -0.41  -0.25    2  189    3  38.3  37.4 1026.6 -9.9 -9.999 -99.9 -99.99 -9.99
2020/01/23 16:24 EST   -0.41  -0.29    2  180    3  38.3  37.4 1026.7 -9.9 -9.999 -99.9 -99.99 -9.99
2020/01/23 16:30 EST   -0.39  -0.33    2  167    3  37.9  37.4 1026.7 -9.9 -9.999 -99.9 -99.99 -9.99
2020/01/23 16:36 EST   -0.37  -0.35    2  152    2  37.9  37.4 1026.7 -9.9 -9.999 -99.9 -99.99 -9.99
2020/01/23 16:42 EST   -0.33  -0.35    1  164    2  37.9  37.4 1026.6 -9.9 -9.999 -99.9 -99.99 -9.99
2020/01/23 16:48 EST   -0.29  -0.32    2  156    2  38.1  37.4 1026.6 -9.9 -9.999 -99.9 -99.99 -9.99
2020/01/23 16:54 EST   -0.24  -0.24    2  150    3  38.3  37.4 1026.6 -9.9 -9.999 -99.9 -99.99 -9.99
2020/01/23 17:00 EST   -0.18  -0.16    2  152    3  38.8  37.4 1026.6 -9.9 -9.999 -99.9 -99.99 -9.99
2020/01/23 17:06 EST   -0.11  -0.08    2  150    3  38.8  37.4 1026.5 -9.9 -9.999 -99.9 -99.99 -9.99
2020/01/23 17:12 EST   -0.03   0.03    2  156    2  39.0  37.4 1026.5 -9.9 -9.999 -99.9 -99.99 -9.99
2020/01/23 17:18 EST    0.05   0.15    2  178    2  39.2  37.4 1026.6 -9.9 -9.999 -99.9 -99.99 -9.99
2020/01/23 17:24 EST    0.14   0.27    2  155    3  39.0  37.4 1026.6 -9.9 -9.999 -99.9 -99.99 -9.99
2020/01/23 17:30 EST    0.23   0.40    3  171    3  38.8  37.4 1026.8 -9.9 -9.999 -99.9 -99.99 -9.99
2020/01/23 17:36 EST    0.33   0.55    2  171    3  37.9  37.2 1026.8 -9.9 -9.999 -99.9 -99.99 -9.99
2020/01/23 17:42 EST    0.43 -99.99 -999 -999 -999 -99.9 -99.9 -999.9 -9.9 -9.999 -99.9 -99.99 -9.99